Observation data for Lake Alan Henry on 07/18/2019      Previous  Date  Next       Current Mesonet Observations  Soil Data  Daily Summary Page  Observations in Plain Language
KAHS 180500Z 18009KT 30/17 A2994 RMK A01 T02980171  RH  046%=      5-min Rain = 0
KAHS 180501Z 18008KT 30/17 A2994 RMK A01 T02980171  RH  047%=      5-min Rain = 0
KAHS 180502Z 18009KT 30/17 A2994 RMK A01 T02980171  RH  047%=      5-min Rain = 0
KAHS 180503Z 17010KT 30/17 A2994 RMK A01 T02970171  RH  047%=      5-min Rain = 0
KAHS 180504Z 18009KT 30/17 A2994 RMK A01 T02970171  RH  047%=      5-min Rain = 0
KAHS 180505Z 17008KT 30/17 A2994 RMK A01 T02970171  RH  047%=      5-min Rain = 0
KAHS 180506Z 18009KT 30/17 A2994 RMK A01 T02960171  RH  047%=      5-min Rain = 0
KAHS 180507Z 18009KT 30/17 A2994 RMK A01 T02960171  RH  047%=      5-min Rain = 0
KAHS 180508Z 18010KT 30/17 A2994 RMK A01 T02960172  RH  047%=      5-min Rain = 0
KAHS 180509Z 18012KT 30/17 A2994 RMK A01 T02960171  RH  047%=      5-min Rain = 0
KAHS 180510Z 18010KT 30/17 A2994 RMK A01 T02970171  RH  047%=      5-min Rain = 0
KAHS 180511Z 17011KT 30/17 A2994 RMK A01 T02970171  RH  047%=      5-min Rain = 0
KAHS 180512Z 18009KT 30/17 A2994 RMK A01 T02970170  RH  046%=      5-min Rain = 0
KAHS 180513Z 18009KT 30/17 A2994 RMK A01 T02970171  RH  047%=      5-min Rain = 0
KAHS 180514Z 18011KT 30/17 A2994 RMK A01 T02970171  RH  047%=      5-min Rain = 0
KAHS 180515Z 18013KT 30/17 A2994 RMK A01 T02970171  RH  047%=      5-min Rain = 0
KAHS 180516Z 18013KT 30/17 A2994 RMK A01 T02970171  RH  046%=      5-min Rain = 0
KAHS 180517Z 18010KT 30/17 A2994 RMK A01 T02980171  RH  047%=      5-min Rain = 0
KAHS 180518Z 18011KT 30/17 A2994 RMK A01 T02970171  RH  047%=      5-min Rain = 0
KAHS 180519Z 18010KT 30/17 A2994 RMK A01 T02970172  RH  047%=      5-min Rain = 0
KAHS 180520Z 18010KT 30/17 A2994 RMK A01 T02960172  RH  047%=      5-min Rain = 0
KAHS 180521Z 18010KT 30/17 A2994 RMK A01 T02960172  RH  047%=      5-min Rain = 0
KAHS 180522Z 18010KT 30/17 A2994 RMK A01 T02960172  RH  047%=      5-min Rain = 0
KAHS 180523Z 18011KT 30/17 A2994 RMK A01 T02960172  RH  047%=      5-min Rain = 0
KAHS 180524Z 18011KT 30/17 A2994 RMK A01 T02960172  RH  047%=      5-min Rain = 0
KAHS 180525Z 18008KT 30/17 A2995 RMK A01 T02960172  RH  047%=      5-min Rain = 0
KAHS 180526Z 19010KT 30/17 A2995 RMK A01 T02950172  RH  048%=      5-min Rain = 0
KAHS 180527Z 18009KT 30/17 A2995 RMK A01 T02950173  RH  048%=      5-min Rain = 0
KAHS 180528Z 19009G14KT 30/17 A2995 RMK A01 T02950173  RH  048%=      5-min Rain = 0
KAHS 180529Z 18010KT 29/17 A2995 RMK A01 T02940172  RH  048%=      5-min Rain = 0
KAHS 180530Z 19011KT 30/17 A2994 RMK A01 T02950172  RH  048%=      5-min Rain = 0
KAHS 180531Z 18011KT 30/17 A2994 RMK A01 T02950172  RH  048%=      5-min Rain = 0
KAHS 180532Z 18007KT 30/17 A2995 RMK A01 T02950173  RH  048%=      5-min Rain = 0
KAHS 180533Z 18009G14KT 29/17 A2994 RMK A01 T02940173  RH  048%=      5-min Rain = 0
KAHS 180534Z 18010KT 29/17 A2994 RMK A01 T02940172  RH  048%=      5-min Rain = 0
KAHS 180535Z 18009KT 29/17 A2995 RMK A01 T02940173  RH  048%=      5-min Rain = 0
KAHS 180536Z 18010KT 29/17 A2995 RMK A01 T02930172  RH  048%=      5-min Rain = 0
KAHS 180537Z 18010KT 29/17 A2995 RMK A01 T02930173  RH  048%=      5-min Rain = 0
KAHS 180538Z 19012KT 29/17 A2995 RMK A01 T02940172  RH  048%=      5-min Rain = 0
KAHS 180539Z 18012G17KT 30/17 A2995 RMK A01 T02950172  RH  048%=      5-min Rain = 0
KAHS 180540Z 18012G17KT 30/17 A2995 RMK A01 T02950172  RH  048%=      5-min Rain = 0
KAHS 180541Z 19012KT 30/17 A2995 RMK A01 T02950172  RH  048%=      5-min Rain = 0
KAHS 180542Z 18012KT 30/17 A2995 RMK A01 T02950172  RH  048%=      5-min Rain = 0
KAHS 180543Z 18014KT 29/17 A2995 RMK A01 T02940172  RH  048%=      5-min Rain = 0
KAHS 180544Z 19013KT 29/17 A2994 RMK A01 T02940172  RH  048%=      5-min Rain = 0
KAHS 180545Z 18011KT 30/17 A2994 RMK A01 T02950172  RH  048%=      5-min Rain = 0
KAHS 180546Z 18011KT 29/17 A2995 RMK A01 T02940171  RH  048%=      5-min Rain = 0
KAHS 180547Z 18011KT 29/17 A2994 RMK A01 T02940171  RH  048%=      5-min Rain = 0
KAHS 180548Z 18013KT 29/17 A2995 RMK A01 T02940171  RH  048%=      5-min Rain = 0
KAHS 180549Z 18013KT 29/17 A2995 RMK A01 T02940171  RH  047%=      5-min Rain = 0
KAHS 180550Z 18010KT 29/17 A2995 RMK A01 T02940171  RH  047%=      5-min Rain = 0
KAHS 180551Z 18011KT 29/17 A2995 RMK A01 T02930171  RH  048%=      5-min Rain = 0
KAHS 180552Z 18012KT 29/17 A2995 RMK A01 T02930171  RH  048%=      5-min Rain = 0
KAHS 180553Z 18010KT 29/17 A2995 RMK A01 T02930172  RH  048%=      5-min Rain = 0
KAHS 180554Z 18010KT 29/17 A2995 RMK A01 T02930172  RH  048%=      5-min Rain = 0
KAHS 180555Z 18009KT 29/17 A2995 RMK A01 T02930173  RH  048%=      5-min Rain = 0
KAHS 180556Z 19011KT 29/17 A2995 RMK A01 T02920172  RH  048%=      5-min Rain = 0
KAHS 180557Z 19009KT 29/17 A2995 RMK A01 T02920172  RH  049%=      5-min Rain = 0
KAHS 180558Z 19010KT 29/17 A2995 RMK A01 T02920173  RH  049%=      5-min Rain = 0
KAHS 180559Z 18010KT 29/17 A2995 RMK A01 T02920174  RH  049%=      5-min Rain = 0
KAHS 180600Z 18008KT 29/17 A2995 RMK A01 T02920174  RH  049%=      5-min Rain = 0
KAHS 180601Z 18007KT 29/17 A2995 RMK A01 T02910174  RH  049%=      5-min Rain = 0
KAHS 180602Z 18010KT 29/17 A2995 RMK A01 T02910173  RH  049%=      5-min Rain = 0
KAHS 180603Z 18008KT 29/17 A2995 RMK A01 T02910173  RH  049%=      5-min Rain = 0
KAHS 180604Z 18009KT 29/17 A2995 RMK A01 T02910174  RH  049%=      5-min Rain = 0
KAHS 180605Z 19007KT 29/17 A2995 RMK A01 T02900174  RH  049%=      5-min Rain = 0
KAHS 180606Z 18009KT 29/17 A2995 RMK A01 T02890173  RH  050%=      5-min Rain = 0
KAHS 180607Z 19009KT 29/17 A2995 RMK A01 T02890173  RH  049%=      5-min Rain = 0
KAHS 180608Z 18007KT 29/17 A2995 RMK A01 T02890173  RH  050%=      5-min Rain = 0
KAHS 180609Z 18006KT 29/17 A2995 RMK A01 T02890173  RH  050%=      5-min Rain = 0
KAHS 180610Z 18009KT 29/17 A2995 RMK A01 T02890173  RH  050%=      5-min Rain = 0
KAHS 180611Z 17008KT 29/17 A2995 RMK A01 T02890173  RH  049%=      5-min Rain = 0
KAHS 180612Z 19009KT 29/17 A2995 RMK A01 T02890172  RH  049%=      5-min Rain = 0
KAHS 180613Z 18008KT 29/17 A2995 RMK A01 T02880172  RH  050%=      5-min Rain = 0
KAHS 180614Z 18010KT 29/17 A2995 RMK A01 T02880172  RH  050%=      5-min Rain = 0
KAHS 180615Z 18010KT 29/17 A2995 RMK A01 T02880172  RH  049%=      5-min Rain = 0
KAHS 180616Z 18008KT 29/17 A2995 RMK A01 T02880172  RH  049%=      5-min Rain = 0
KAHS 180617Z 18008KT 29/17 A2995 RMK A01 T02880173  RH  050%=      5-min Rain = 0
KAHS 180618Z 18008KT 29/17 A2995 RMK A01 T02880173  RH  050%=      5-min Rain = 0
KAHS 180619Z 19008KT 29/17 A2995 RMK A01 T02870173  RH  050%=      5-min Rain = 0
KAHS 180620Z 18009KT 29/17 A2995 RMK A01 T02870174  RH  051%=      5-min Rain = 0
KAHS 180621Z 18009KT 29/17 A2995 RMK A01 T02870173  RH  050%=      5-min Rain = 0
KAHS 180622Z 18010KT 29/17 A2995 RMK A01 T02870173  RH  050%=      5-min Rain = 0
KAHS 180623Z 18008KT 29/17 A2995 RMK A01 T02860173  RH  050%=      5-min Rain = 0
KAHS 180624Z 18007KT 29/17 A2995 RMK A01 T02860173  RH  050%=      5-min Rain = 0
KAHS 180625Z 17008KT 29/17 A2995 RMK A01 T02860173  RH  050%=      5-min Rain = 0
KAHS 180626Z 18008KT 29/17 A2995 RMK A01 T02860172  RH  050%=      5-min Rain = 0
KAHS 180627Z 18008KT 29/17 A2995 RMK A01 T02860173  RH  050%=      5-min Rain = 0
KAHS 180628Z 17008KT 29/17 A2995 RMK A01 T02850172  RH  050%=      5-min Rain = 0
KAHS 180629Z 18007KT 29/17 A2995 RMK A01 T02850171  RH  050%=      5-min Rain = 0
KAHS 180630Z 17009KT 29/17 A2995 RMK A01 T02850171  RH  050%=      5-min Rain = 0
KAHS 180631Z 18010KT 29/17 A2995 RMK A01 T02850171  RH  050%=      5-min Rain = 0
KAHS 180632Z 18009KT 29/17 A2995 RMK A01 T02860171  RH  050%=      5-min Rain = 0
KAHS 180633Z 18010KT 29/17 A2995 RMK A01 T02850171  RH  050%=      5-min Rain = 0
KAHS 180634Z 18010KT 29/17 A2995 RMK A01 T02850171  RH  050%=      5-min Rain = 0
KAHS 180635Z 18011KT 29/17 A2995 RMK A01 T02850171  RH  050%=      5-min Rain = 0
KAHS 180636Z 18011KT 29/17 A2995 RMK A01 T02850171  RH  050%=      5-min Rain = 0
KAHS 180637Z 18010KT 29/17 A2995 RMK A01 T02860171  RH  050%=      5-min Rain = 0
KAHS 180638Z 18010KT 29/17 A2995 RMK A01 T02860172  RH  050%=      5-min Rain = 0
KAHS 180639Z 18010KT 29/17 A2995 RMK A01 T02850172  RH  050%=      5-min Rain = 0
KAHS 180640Z 17009KT 29/17 A2995 RMK A01 T02850172  RH  050%=      5-min Rain = 0
KAHS 180641Z 18011KT 29/17 A2995 RMK A01 T02850172  RH  051%=      5-min Rain = 0
KAHS 180642Z 18010KT 29/17 A2995 RMK A01 T02850172  RH  051%=      5-min Rain = 0
KAHS 180643Z 17009KT 29/17 A2995 RMK A01 T02850172  RH  050%=      5-min Rain = 0
KAHS 180644Z 17010KT 29/17 A2995 RMK A01 T02850172  RH  050%=      5-min Rain = 0
KAHS 180645Z 17009KT 28/17 A2995 RMK A01 T02840172  RH  050%=      5-min Rain = 0
KAHS 180646Z 17010KT 28/17 A2995 RMK A01 T02840171  RH  050%=      5-min Rain = 0
KAHS 180647Z 17011KT 28/17 A2995 RMK A01 T02840171  RH  050%=      5-min Rain = 0
KAHS 180648Z 17010KT 28/17 A2994 RMK A01 T02840171  RH  050%=      5-min Rain = 0
KAHS 180649Z 17011KT 28/17 A2995 RMK A01 T02840171  RH  050%=      5-min Rain = 0
KAHS 180650Z 17009KT 28/17 A2995 RMK A01 T02830171  RH  051%=      5-min Rain = 0
KAHS 180651Z 16010KT 28/17 A2995 RMK A01 T02830171  RH  051%=      5-min Rain = 0
KAHS 180652Z 17010KT 28/17 A2995 RMK A01 T02820171  RH  051%=      5-min Rain = 0
KAHS 180653Z 17010KT 28/17 A2995 RMK A01 T02820171  RH  051%=      5-min Rain = 0
KAHS 180654Z 17012KT 28/17 A2994 RMK A01 T02820171  RH  051%=      5-min Rain = 0
KAHS 180655Z 17010KT 28/17 A2995 RMK A01 T02820171  RH  051%=      5-min Rain = 0
KAHS 180656Z 17015KT 28/17 A2994 RMK A01 T02820170  RH  051%=      5-min Rain = 0
KAHS 180657Z 17013KT 28/17 A2994 RMK A01 T02830170  RH  051%=      5-min Rain = 0
KAHS 180658Z 17012KT 28/17 A2994 RMK A01 T02830171  RH  051%=      5-min Rain = 0
KAHS 180659Z 17012KT 28/17 A2994 RMK A01 T02820171  RH  051%=      5-min Rain = 0
KAHS 180700Z 17011KT 28/17 A2994 RMK A01 T02820171  RH  051%=      5-min Rain = 0
KAHS 180701Z 17013KT 28/17 A2994 RMK A01 T02820171  RH  051%=      5-min Rain = 0
KAHS 180702Z 17012KT 28/17 A2994 RMK A01 T02820171  RH  051%=      5-min Rain = 0
KAHS 180703Z 17010KT 28/17 A2994 RMK A01 T02820171  RH  051%=      5-min Rain = 0
KAHS 180704Z 18013KT 28/17 A2994 RMK A01 T02810171  RH  051%=      5-min Rain = 0
KAHS 180705Z 18014KT 28/17 A2994 RMK A01 T02810171  RH  051%=      5-min Rain = 0
KAHS 180706Z 17010KT 28/17 A2994 RMK A01 T02810171  RH  051%=      5-min Rain = 0
KAHS 180707Z 17008KT 28/17 A2994 RMK A01 T02800171  RH  051%=      5-min Rain = 0
KAHS 180708Z 17011KT 28/17 A2994 RMK A01 T02800171  RH  052%=      5-min Rain = 0
KAHS 180709Z 17010KT 28/17 A2994 RMK A01 T02800171  RH  052%=      5-min Rain = 0
KAHS 180710Z 17009KT 28/17 A2994 RMK A01 T02790172  RH  052%=      5-min Rain = 0
KAHS 180711Z 17008KT 28/17 A2994 RMK A01 T02780171  RH  052%=      5-min Rain = 0
KAHS 180712Z 17008KT 28/17 A2994 RMK A01 T02780172  RH  052%=      5-min Rain = 0
KAHS 180713Z 17007G13KT 28/17 A2994 RMK A01 T02770172  RH  053%=      5-min Rain = 0
KAHS 180714Z 17011KT 28/17 A2994 RMK A01 T02770172  RH  053%=      5-min Rain = 0
KAHS 180715Z 17007KT 28/17 A2994 RMK A01 T02770172  RH  053%=      5-min Rain = 0
KAHS 180716Z 17007KT 28/17 A2994 RMK A01 T02770172  RH  053%=      5-min Rain = 0
KAHS 180717Z 17008KT 28/17 A2994 RMK A01 T02760172  RH  053%=      5-min Rain = 0
KAHS 180718Z 17008KT 28/17 A2994 RMK A01 T02760172  RH  053%=      5-min Rain = 0
KAHS 180719Z 17009KT 28/17 A2994 RMK A01 T02760172  RH  053%=      5-min Rain = 0
KAHS 180720Z 16010KT 28/17 A2994 RMK A01 T02760172  RH  053%=      5-min Rain = 0
KAHS 180721Z 17009KT 28/17 A2994 RMK A01 T02760172  RH  053%=      5-min Rain = 0
KAHS 180722Z 17010KT 28/17 A2994 RMK A01 T02760172  RH  053%=      5-min Rain = 0
KAHS 180723Z 17009KT 28/17 A2994 RMK A01 T02770172  RH  053%=      5-min Rain = 0
KAHS 180724Z 16009KT 28/17 A2994 RMK A01 T02770173  RH  053%=      5-min Rain = 0
KAHS 180725Z 17009KT 28/17 A2994 RMK A01 T02770173  RH  053%=      5-min Rain = 0
KAHS 180726Z 17010KT 28/17 A2994 RMK A01 T02760173  RH  053%=      5-min Rain = 0
KAHS 180727Z 17008KT 28/17 A2994 RMK A01 T02760173  RH  053%=      5-min Rain = 0
KAHS 180728Z 16008KT 28/17 A2994 RMK A01 T02760173  RH  053%=      5-min Rain = 0
KAHS 180729Z 17009KT 28/17 A2994 RMK A01 T02750173  RH  054%=      5-min Rain = 0
KAHS 180730Z 17008KT 28/17 A2994 RMK A01 T02750173  RH  054%=      5-min Rain = 0
KAHS 180731Z 17009KT 28/17 A2994 RMK A01 T02750173  RH  054%=      5-min Rain = 0
KAHS 180732Z 17010KT 28/17 A2994 RMK A01 T02760173  RH  053%=      5-min Rain = 0
KAHS 180733Z 17009KT 28/17 A2994 RMK A01 T02760173  RH  053%=      5-min Rain = 0
KAHS 180734Z 17007G12KT 28/17 A2994 RMK A01 T02760173  RH  054%=      5-min Rain = 0
KAHS 180735Z 18011KT 28/17 A2994 RMK A01 T02750174  RH  054%=      5-min Rain = 0
KAHS 180736Z 17010KT 28/17 A2994 RMK A01 T02750174  RH  054%=      5-min Rain = 0
KAHS 180737Z 17009KT 28/17 A2994 RMK A01 T02750174  RH  054%=      5-min Rain = 0
KAHS 180738Z 18010KT 28/17 A2994 RMK A01 T02760174  RH  054%=      5-min Rain = 0
KAHS 180739Z 17010KT 28/17 A2994 RMK A01 T02760174  RH  054%=      5-min Rain = 0
KAHS 180740Z 18013KT 28/18 A2994 RMK A01 T02760175  RH  054%=      5-min Rain = 0
KAHS 180741Z 19011KT 28/18 A2994 RMK A01 T02770175  RH  054%=      5-min Rain = 0
KAHS 180742Z 18012KT 28/18 A2994 RMK A01 T02770175  RH  054%=      5-min Rain = 0
KAHS 180743Z 18012KT 28/18 A2994 RMK A01 T02770176  RH  054%=      5-min Rain = 0
KAHS 180744Z 18011KT 28/18 A2994 RMK A01 T02770176  RH  054%=      5-min Rain = 0
KAHS 180745Z 18012KT 28/18 A2994 RMK A01 T02770176  RH  054%=      5-min Rain = 0
KAHS 180746Z 18010KT 28/18 A2994 RMK A01 T02770176  RH  054%=      5-min Rain = 0
KAHS 180747Z 18012KT 28/18 A2994 RMK A01 T02770176  RH  054%=      5-min Rain = 0
KAHS 180748Z 17010KT 28/18 A2994 RMK A01 T02760176  RH  054%=      5-min Rain = 0
KAHS 180749Z 18007KT 28/18 A2994 RMK A01 T02760176  RH  054%=      5-min Rain = 0
KAHS 180750Z 18011KT 28/18 A2994 RMK A01 T02750176  RH  055%=      5-min Rain = 0
KAHS 180751Z 18009KT 28/18 A2994 RMK A01 T02750176  RH  055%=      5-min Rain = 0
KAHS 180752Z 19009KT 28/18 A2994 RMK A01 T02750177  RH  055%=      5-min Rain = 0
KAHS 180753Z 18009KT 28/18 A2994 RMK A01 T02750177  RH  055%=      5-min Rain = 0
KAHS 180754Z 18009G14KT 27/18 A2994 RMK A01 T02740177  RH  055%=      5-min Rain = 0
KAHS 180755Z 18008KT 27/18 A2994 RMK A01 T02740177  RH  055%=      5-min Rain = 0
KAHS 180756Z 18010KT 27/18 A2994 RMK A01 T02730177  RH  056%=      5-min Rain = 0
KAHS 180757Z 18011KT 27/18 A2994 RMK A01 T02740178  RH  056%=      5-min Rain = 0
KAHS 180758Z 18015KT 28/18 A2994 RMK A01 T02750178  RH  055%=      5-min Rain = 0
KAHS 180759Z 18015KT 28/18 A2994 RMK A01 T02760179  RH  055%=      5-min Rain = 0
KAHS 180800Z 18013G19KT 28/18 A2994 RMK A01 T02760179  RH  055%=      5-min Rain = 0
KAHS 180801Z 18011KT 28/18 A2994 RMK A01 T02760179  RH  056%=      5-min Rain = 0
KAHS 180802Z 18011KT 28/18 A2994 RMK A01 T02750179  RH  056%=      5-min Rain = 0
KAHS 180803Z 18010KT 28/18 A2994 RMK A01 T02750179  RH  056%=      5-min Rain = 0
KAHS 180804Z 18012KT 28/18 A2994 RMK A01 T02750180  RH  056%=      5-min Rain = 0
KAHS 180805Z 19012KT 28/18 A2994 RMK A01 T02750180  RH  056%=      5-min Rain = 0
KAHS 180806Z 18015KT 28/18 A2994 RMK A01 T02750180  RH  056%=      5-min Rain = 0
KAHS 180807Z 17013KT 28/18 A2994 RMK A01 T02750180  RH  056%=      5-min Rain = 0
KAHS 180808Z 18012G18KT 28/18 A2994 RMK A01 T02750181  RH  056%=      5-min Rain = 0
KAHS 180809Z 18014KT 28/18 A2994 RMK A01 T02750181  RH  056%=      5-min Rain = 0
KAHS 180810Z 18013G18KT 28/18 A2994 RMK A01 T02750181  RH  056%=      5-min Rain = 0
KAHS 180811Z 19015G20KT 28/18 A2994 RMK A01 T02750181  RH  057%=      5-min Rain = 0
KAHS 180812Z 18014G19KT 28/18 A2994 RMK A01 T02760181  RH  056%=      5-min Rain = 0
KAHS 180813Z 18014KT 28/18 A2994 RMK A01 T02750181  RH  056%=      5-min Rain = 0
KAHS 180814Z 18011KT 28/18 A2994 RMK A01 T02750182  RH  057%=      5-min Rain = 0
KAHS 180815Z 18014KT 28/18 A2994 RMK A01 T02750182  RH  057%=      5-min Rain = 0
KAHS 180816Z 18012G17KT 28/18 A2994 RMK A01 T02750182  RH  057%=      5-min Rain = 0
KAHS 180817Z 18014KT 28/18 A2994 RMK A01 T02750182  RH  057%=      5-min Rain = 0
KAHS 180818Z 18010G15KT 28/18 A2995 RMK A01 T02750182  RH  057%=      5-min Rain = 0
KAHS 180819Z 18011G16KT 28/18 A2995 RMK A01 T02750182  RH  057%=      5-min Rain = 0
KAHS 180820Z 18010G16KT 27/18 A2994 RMK A01 T02740183  RH  057%=      5-min Rain = 0
KAHS 180821Z 18016KT 27/18 A2994 RMK A01 T02740183  RH  057%=      5-min Rain = 0
KAHS 180822Z 18015G21KT 28/18 A2994 RMK A01 T02750183  RH  057%=      5-min Rain = 0
KAHS 180823Z 18016KT 28/18 A2994 RMK A01 T02750183  RH  057%=      5-min Rain = 0
KAHS 180824Z 18014KT 28/18 A2994 RMK A01 T02750183  RH  057%=      5-min Rain = 0
KAHS 180825Z 18017KT 28/18 A2994 RMK A01 T02750183  RH  057%=      5-min Rain = 0
KAHS 180826Z 18013KT 28/18 A2994 RMK A01 T02750183  RH  057%=      5-min Rain = 0
KAHS 180827Z 18014KT 28/18 A2994 RMK A01 T02750183  RH  057%=      5-min Rain = 0
KAHS 180828Z 18012KT 28/18 A2994 RMK A01 T02750183  RH  057%=      5-min Rain = 0
KAHS 180829Z 18009KT 27/18 A2994 RMK A01 T02740183  RH  058%=      5-min Rain = 0
KAHS 180830Z 18012KT 27/18 A2994 RMK A01 T02740184  RH  058%=      5-min Rain = 0
KAHS 180831Z 18012KT 27/18 A2994 RMK A01 T02730183  RH  058%=      5-min Rain = 0
KAHS 180832Z 18012KT 27/18 A2994 RMK A01 T02730183  RH  058%=      5-min Rain = 0
KAHS 180833Z 18012KT 27/18 A2994 RMK A01 T02730183  RH  058%=      5-min Rain = 0
KAHS 180834Z 17011G16KT 27/18 A2994 RMK A01 T02730184  RH  058%=      5-min Rain = 0
KAHS 180835Z 18012KT 27/18 A2994 RMK A01 T02730184  RH  058%=      5-min Rain = 0
KAHS 180836Z 18015KT 27/18 A2994 RMK A01 T02730184  RH  058%=      5-min Rain = 0
KAHS 180837Z 18015KT 27/18 A2994 RMK A01 T02730184  RH  058%=      5-min Rain = 0
KAHS 180838Z 18012KT 27/18 A2994 RMK A01 T02730184  RH  058%=      5-min Rain = 0
KAHS 180839Z 18013KT 27/18 A2994 RMK A01 T02730184  RH  058%=      5-min Rain = 0
KAHS 180840Z 18013KT 27/18 A2995 RMK A01 T02730184  RH  058%=      5-min Rain = 0
KAHS 180841Z 17015KT 27/18 A2994 RMK A01 T02730184  RH  058%=      5-min Rain = 0
KAHS 180842Z 17015G21KT 27/18 A2995 RMK A01 T02730184  RH  058%=      5-min Rain = 0
KAHS 180843Z 17015KT 27/18 A2995 RMK A01 T02720184  RH  058%=      5-min Rain = 0
KAHS 180844Z 18012KT 27/18 A2995 RMK A01 T02720184  RH  058%=      5-min Rain = 0
KAHS 180845Z 18011KT 27/18 A2995 RMK A01 T02720184  RH  059%=      5-min Rain = 0
KAHS 180846Z 18014G19KT 27/18 A2995 RMK A01 T02710184  RH  059%=      5-min Rain = 0
KAHS 180847Z 17011KT 27/18 A2995 RMK A01 T02710184  RH  059%=      5-min Rain = 0
KAHS 180848Z 17011KT 27/18 A2995 RMK A01 T02710184  RH  059%=      5-min Rain = 0
KAHS 180849Z 18011KT 27/18 A2995 RMK A01 T02700184  RH  059%=      5-min Rain = 0
KAHS 180850Z 17011KT 27/18 A2995 RMK A01 T02690184  RH  060%=      5-min Rain = 0
KAHS 180851Z 17014KT 27/18 A2995 RMK A01 T02690184  RH  060%=      5-min Rain = 0
KAHS 180852Z 17013KT 27/18 A2995 RMK A01 T02700184  RH  059%=      5-min Rain = 0
KAHS 180853Z 17013KT 27/18 A2995 RMK A01 T02700184  RH  059%=      5-min Rain = 0
KAHS 180854Z 18012KT 27/18 A2995 RMK A01 T02700184  RH  059%=      5-min Rain = 0
KAHS 180855Z 18013KT 27/18 A2995 RMK A01 T02690184  RH  060%=      5-min Rain = 0
KAHS 180856Z 18011KT 27/18 A2995 RMK A01 T02690184  RH  060%=      5-min Rain = 0
KAHS 180857Z 18012KT 27/18 A2995 RMK A01 T02690184  RH  060%=      5-min Rain = 0
KAHS 180858Z 18012G17KT 27/18 A2995 RMK A01 T02690184  RH  060%=      5-min Rain = 0
KAHS 180859Z 18014KT 27/18 A2995 RMK A01 T02680184  RH  060%=      5-min Rain = 0
KAHS 180900Z 18010KT 27/18 A2995 RMK A01 T02680184  RH  060%=      5-min Rain = 0
KAHS 180901Z 18013G19KT 27/19 A2995 RMK A01 T02680185  RH  060%=      5-min Rain = 0
KAHS 180902Z 18014KT 27/18 A2995 RMK A01 T02680184  RH  060%=      5-min Rain = 0
KAHS 180903Z 18012KT 27/19 A2995 RMK A01 T02680185  RH  060%=      5-min Rain = 0
KAHS 180904Z 18009KT 27/19 A2995 RMK A01 T02680185  RH  060%=      5-min Rain = 0
KAHS 180905Z 18009KT 27/19 A2995 RMK A01 T02670185  RH  061%=      5-min Rain = 0
KAHS 180906Z 18012KT 27/19 A2995 RMK A01 T02670186  RH  061%=      5-min Rain = 0
KAHS 180907Z 18009KT 27/19 A2995 RMK A01 T02670185  RH  061%=      5-min Rain = 0
KAHS 180908Z 17009KT 27/19 A2995 RMK A01 T02670186  RH  061%=      5-min Rain = 0
KAHS 180909Z 18011KT 27/19 A2995 RMK A01 T02660186  RH  061%=      5-min Rain = 0
KAHS 180910Z 18010KT 27/19 A2995 RMK A01 T02660186  RH  061%=      5-min Rain = 0
KAHS 180911Z 18010KT 27/19 A2995 RMK A01 T02660186  RH  061%=      5-min Rain = 0
KAHS 180912Z 18010KT 27/19 A2995 RMK A01 T02660186  RH  061%=      5-min Rain = 0
KAHS 180913Z 18011KT 27/19 A2995 RMK A01 T02660186  RH  062%=      5-min Rain = 0
KAHS 180914Z 19011KT 27/19 A2995 RMK A01 T02660187  RH  062%=      5-min Rain = 0
KAHS 180915Z 19011G17KT 27/19 A2995 RMK A01 T02660187  RH  062%=      5-min Rain = 0
KAHS 180916Z 18010KT 27/19 A2995 RMK A01 T02660187  RH  062%=      5-min Rain = 0
KAHS 180917Z 18012KT 27/19 A2995 RMK A01 T02660187  RH  062%=      5-min Rain = 0
KAHS 180918Z 18012KT 27/19 A2995 RMK A01 T02660187  RH  062%=      5-min Rain = 0
KAHS 180919Z 18010KT 27/19 A2995 RMK A01 T02670188  RH  062%=      5-min Rain = 0
KAHS 180920Z 18009G14KT 27/19 A2995 RMK A01 T02660188  RH  062%=      5-min Rain = 0
KAHS 180921Z 18011KT 27/19 A2995 RMK A01 T02660188  RH  062%=      5-min Rain = 0
KAHS 180922Z 19010KT 27/19 A2995 RMK A01 T02660188  RH  062%=      5-min Rain = 0
KAHS 180923Z 19010KT 27/19 A2995 RMK A01 T02660189  RH  062%=      5-min Rain = 0
KAHS 180924Z 20013G18KT 27/19 A2995 RMK A01 T02660189  RH  063%=      5-min Rain = 0
KAHS 180925Z 20011KT 27/19 A2995 RMK A01 T02660189  RH  062%=      5-min Rain = 0
KAHS 180926Z 19013KT 27/19 A2995 RMK A01 T02660189  RH  062%=      5-min Rain = 0
KAHS 180927Z 19011KT 27/19 A2995 RMK A01 T02670189  RH  062%=      5-min Rain = 0
KAHS 180928Z 20009G15KT 27/19 A2995 RMK A01 T02670189  RH  062%=      5-min Rain = 0
KAHS 180929Z 19014KT 27/19 A2995 RMK A01 T02670189  RH  062%=      5-min Rain = 0
KAHS 180930Z 19011KT 27/19 A2995 RMK A01 T02670189  RH  062%=      5-min Rain = 0
KAHS 180931Z 20010KT 27/19 A2995 RMK A01 T02670189  RH  062%=      5-min Rain = 0
KAHS 180932Z 20009KT 27/19 A2995 RMK A01 T02660189  RH  063%=      5-min Rain = 0
KAHS 180933Z 20014KT 27/19 A2995 RMK A01 T02660189  RH  063%=      5-min Rain = 0
KAHS 180934Z 19012KT 27/19 A2995 RMK A01 T02670190  RH  063%=      5-min Rain = 0
KAHS 180935Z 19015KT 27/19 A2995 RMK A01 T02670190  RH  063%=      5-min Rain = 0
KAHS 180936Z 20013KT 27/19 A2995 RMK A01 T02670190  RH  063%=      5-min Rain = 0
KAHS 180937Z 19015KT 27/19 A2995 RMK A01 T02670191  RH  063%=      5-min Rain = 0
KAHS 180938Z 20013G18KT 27/19 A2995 RMK A01 T02670191  RH  063%=      5-min Rain = 0
KAHS 180939Z 20012KT 27/19 A2995 RMK A01 T02670190  RH  063%=      5-min Rain = 0
KAHS 180940Z 19012KT 27/19 A2995 RMK A01 T02670190  RH  063%=      5-min Rain = 0
KAHS 180941Z 19014KT 27/19 A2995 RMK A01 T02660190  RH  063%=      5-min Rain = 0
KAHS 180942Z 20010KT 27/19 A2995 RMK A01 T02670191  RH  063%=      5-min Rain = 0
KAHS 180943Z 20010G16KT 27/19 A2996 RMK A01 T02660191  RH  063%=      5-min Rain = 0
KAHS 180944Z 19012KT 27/19 A2996 RMK A01 T02660191  RH  064%=      5-min Rain = 0
KAHS 180945Z 20012KT 27/19 A2996 RMK A01 T02650191  RH  063%=      5-min Rain = 0
KAHS 180946Z 20011KT 27/19 A2996 RMK A01 T02650191  RH  064%=      5-min Rain = 0
KAHS 180947Z 20012KT 27/19 A2996 RMK A01 T02650191  RH  064%=      5-min Rain = 0
KAHS 180948Z 20011KT 27/19 A2996 RMK A01 T02650191  RH  064%=      5-min Rain = 0
KAHS 180949Z 20010G15KT 27/19 A2996 RMK A01 T02650191  RH  064%=      5-min Rain = 0
KAHS 180950Z 21011KT 27/19 A2996 RMK A01 T02650191  RH  064%=      5-min Rain = 0
KAHS 180951Z 20012G17KT 27/19 A2996 RMK A01 T02650191  RH  064%=      5-min Rain = 0
KAHS 180952Z 20010G16KT 27/19 A2996 RMK A01 T02650191  RH  064%=      5-min Rain = 0
KAHS 180953Z 19012G17KT 26/19 A2996 RMK A01 T02640191  RH  064%=      5-min Rain = 0
KAHS 180954Z 19012KT 26/19 A2996 RMK A01 T02640191  RH  064%=      5-min Rain = 0
KAHS 180955Z 20013KT 26/19 A2996 RMK A01 T02640191  RH  064%=      5-min Rain = 0
KAHS 180956Z 19010KT 26/19 A2996 RMK A01 T02640191  RH  064%=      5-min Rain = 0
KAHS 180957Z 20009KT 26/19 A2996 RMK A01 T02640191  RH  064%=      5-min Rain = 0
KAHS 180958Z 20012KT 26/19 A2996 RMK A01 T02640191  RH  064%=      5-min Rain = 0
KAHS 180959Z 20012KT 26/19 A2996 RMK A01 T02640191  RH  064%=      5-min Rain = 0
KAHS 181000Z 20010KT 26/19 A2996 RMK A01 T02630191  RH  064%=      5-min Rain = 0
KAHS 181001Z 19009KT 26/19 A2996 RMK A01 T02630191  RH  065%=      5-min Rain = 0
KAHS 181002Z 20010KT 26/19 A2996 RMK A01 T02620191  RH  065%=      5-min Rain = 0
KAHS 181003Z 20010KT 26/19 A2996 RMK A01 T02620191  RH  065%=      5-min Rain = 0
KAHS 181004Z 20010KT 26/19 A2996 RMK A01 T02620191  RH  065%=      5-min Rain = 0
KAHS 181005Z 20010KT 26/19 A2996 RMK A01 T02620191  RH  065%=      5-min Rain = 0
KAHS 181006Z 20012KT 26/19 A2996 RMK A01 T02620191  RH  065%=      5-min Rain = 0
KAHS 181007Z 20012KT 26/19 A2997 RMK A01 T02630191  RH  065%=      5-min Rain = 0
KAHS 181008Z 20011KT 26/19 A2997 RMK A01 T02620191  RH  065%=      5-min Rain = 0
KAHS 181009Z 21007KT 26/19 A2997 RMK A01 T02620191  RH  065%=      5-min Rain = 0
KAHS 181010Z 20009G14KT 26/19 A2997 RMK A01 T02620191  RH  065%=      5-min Rain = 0
KAHS 181011Z 20010KT 26/19 A2997 RMK A01 T02620191  RH  065%=      5-min Rain = 0
KAHS 181012Z 20009KT 26/19 A2997 RMK A01 T02620191  RH  065%=      5-min Rain = 0
KAHS 181013Z 20009KT 26/19 A2997 RMK A01 T02620191  RH  065%=      5-min Rain = 0
KAHS 181014Z 20009KT 26/19 A2997 RMK A01 T02610191  RH  065%=      5-min Rain = 0
KAHS 181015Z 20010KT 26/19 A2997 RMK A01 T02610191  RH  065%=      5-min Rain = 0
KAHS 181016Z 19010KT 26/19 A2997 RMK A01 T02610191  RH  066%=      5-min Rain = 0
KAHS 181017Z 20007KT 26/19 A2997 RMK A01 T02610191  RH  065%=      5-min Rain = 0
KAHS 181018Z 19008KT 26/19 A2997 RMK A01 T02600191  RH  066%=      5-min Rain = 0
KAHS 181019Z 19010KT 26/19 A2997 RMK A01 T02600191  RH  066%=      5-min Rain = 0
KAHS 181020Z 19009KT 26/19 A2997 RMK A01 T02600191  RH  066%=      5-min Rain = 0
KAHS 181021Z 19010KT 26/19 A2997 RMK A01 T02600191  RH  066%=      5-min Rain = 0
KAHS 181022Z 19012KT 26/19 A2997 RMK A01 T02600192  RH  066%=      5-min Rain = 0
KAHS 181023Z 19009KT 26/19 A2997 RMK A01 T02600192  RH  066%=      5-min Rain = 0
KAHS 181024Z 20010KT 26/19 A2997 RMK A01 T02600192  RH  066%=      5-min Rain = 0
KAHS 181025Z 20010KT 26/19 A2997 RMK A01 T02600191  RH  066%=      5-min Rain = 0
KAHS 181026Z 19010KT 26/19 A2997 RMK A01 T02590192  RH  066%=      5-min Rain = 0
KAHS 181027Z 20008KT 26/19 A2997 RMK A01 T02590192  RH  066%=      5-min Rain = 0
KAHS 181028Z 19008G13KT 26/19 A2997 RMK A01 T02590192  RH  066%=      5-min Rain = 0
KAHS 181029Z 19012KT 26/19 A2997 RMK A01 T02580192  RH  067%=      5-min Rain = 0
KAHS 181030Z 20011KT 26/19 A2997 RMK A01 T02590192  RH  066%=      5-min Rain = 0
KAHS 181031Z 19012KT 26/19 A2997 RMK A01 T02590192  RH  066%=      5-min Rain = 0
KAHS 181032Z 19010KT 26/19 A2997 RMK A01 T02590192  RH  066%=      5-min Rain = 0
KAHS 181033Z 19010G16KT 26/19 A2997 RMK A01 T02590192  RH  067%=      5-min Rain = 0
KAHS 181034Z 19011G17KT 26/19 A2997 RMK A01 T02590192  RH  067%=      5-min Rain = 0
KAHS 181035Z 20010KT 26/19 A2997 RMK A01 T02590192  RH  067%=      5-min Rain = 0
KAHS 181036Z 19008KT 26/19 A2997 RMK A01 T02590192  RH  067%=      5-min Rain = 0
KAHS 181037Z 20009KT 26/19 A2997 RMK A01 T02580192  RH  067%=      5-min Rain = 0
KAHS 181038Z 19012KT 26/19 A2997 RMK A01 T02570192  RH  067%=      5-min Rain = 0
KAHS 181039Z 19013KT 26/19 A2997 RMK A01 T02570192  RH  067%=      5-min Rain = 0
KAHS 181040Z 19010KT 26/19 A2997 RMK A01 T02580192  RH  067%=      5-min Rain = 0
KAHS 181041Z 19009KT 26/19 A2997 RMK A01 T02580192  RH  067%=      5-min Rain = 0
KAHS 181042Z 20012KT 26/19 A2997 RMK A01 T02570192  RH  067%=      5-min Rain = 0
KAHS 181043Z 20012G17KT 26/19 A2997 RMK A01 T02570192  RH  067%=      5-min Rain = 0
KAHS 181044Z 19010KT 26/19 A2997 RMK A01 T02580193  RH  067%=      5-min Rain = 0
KAHS 181045Z 19013KT 26/19 A2997 RMK A01 T02570193  RH  068%=      5-min Rain = 0
KAHS 181046Z 20012KT 26/19 A2997 RMK A01 T02580193  RH  067%=      5-min Rain = 0
KAHS 181047Z 20012KT 26/19 A2997 RMK A01 T02580193  RH  067%=      5-min Rain = 0
KAHS 181048Z 19012KT 26/19 A2997 RMK A01 T02570193  RH  068%=      5-min Rain = 0
KAHS 181049Z 19009G14KT 26/19 A2997 RMK A01 T02570193  RH  068%=      5-min Rain = 0
KAHS 181050Z 19011KT 26/19 A2997 RMK A01 T02560193  RH  068%=      5-min Rain = 0
KAHS 181051Z 19010G15KT 26/19 A2997 RMK A01 T02560193  RH  068%=      5-min Rain = 0
KAHS 181052Z 19012KT 26/19 A2997 RMK A01 T02560193  RH  068%=      5-min Rain = 0
KAHS 181053Z 19010KT 26/19 A2997 RMK A01 T02560193  RH  068%=      5-min Rain = 0
KAHS 181054Z 19012KT 26/19 A2997 RMK A01 T02560194  RH  068%=      5-min Rain = 0
KAHS 181055Z 19012KT 26/19 A2997 RMK A01 T02560194  RH  068%=      5-min Rain = 0
KAHS 181056Z 20010KT 26/19 A2997 RMK A01 T02560194  RH  068%=      5-min Rain = 0
KAHS 181057Z 19013G19KT 26/19 A2997 RMK A01 T02560194  RH  068%=      5-min Rain = 0
KAHS 181058Z 19013G18KT 26/19 A2997 RMK A01 T02560194  RH  068%=      5-min Rain = 0
KAHS 181059Z 19013KT 26/19 A2997 RMK A01 T02560194  RH  068%=      5-min Rain = 0
KAHS 181100Z 18010KT 26/19 A2997 RMK A01 T02560194  RH  068%=      5-min Rain = 0
KAHS 181101Z 19012G18KT 26/19 A2997 RMK A01 T02560194  RH  069%=      5-min Rain = 0
KAHS 181102Z 19012KT 26/19 A2997 RMK A01 T02560194  RH  069%=      5-min Rain = 0
KAHS 181103Z 19011KT 26/19 A2997 RMK A01 T02560194  RH  069%=      5-min Rain = 0
KAHS 181104Z 19011KT 26/19 A2997 RMK A01 T02560194  RH  069%=      5-min Rain = 0
KAHS 181105Z 20011KT 26/19 A2997 RMK A01 T02550194  RH  069%=      5-min Rain = 0
KAHS 181106Z 19012G17KT 26/19 A2997 RMK A01 T02550194  RH  069%=      5-min Rain = 0
KAHS 181107Z 19011KT 26/19 A2997 RMK A01 T02550194  RH  069%=      5-min Rain = 0
KAHS 181108Z 20009KT 25/19 A2997 RMK A01 T02540194  RH  069%=      5-min Rain = 0
KAHS 181109Z 20011KT 25/19 A2997 RMK A01 T02540194  RH  069%=      5-min Rain = 0
KAHS 181110Z 19011KT 25/19 A2997 RMK A01 T02540194  RH  069%=      5-min Rain = 0
KAHS 181111Z 19010KT 25/19 A2997 RMK A01 T02540194  RH  069%=      5-min Rain = 0
KAHS 181112Z 19009KT 25/20 A2997 RMK A01 T02540195  RH  070%=      5-min Rain = 0
KAHS 181113Z 20010KT 25/20 A2997 RMK A01 T02540195  RH  070%=      5-min Rain = 0
KAHS 181114Z 19010KT 25/20 A2997 RMK A01 T02540195  RH  070%=      5-min Rain = 0
KAHS 181115Z 19012KT 25/20 A2997 RMK A01 T02540195  RH  070%=      5-min Rain = 0
KAHS 181116Z 20010KT 25/20 A2997 RMK A01 T02540195  RH  070%=      5-min Rain = 0
KAHS 181117Z 20010G15KT 25/20 A2997 RMK A01 T02540195  RH  070%=      5-min Rain = 0
KAHS 181118Z 19012G17KT 25/20 A2997 RMK A01 T02540195  RH  070%=      5-min Rain = 0
KAHS 181119Z 19012KT 25/20 A2997 RMK A01 T02540195  RH  070%=      5-min Rain = 0
KAHS 181120Z 19011KT 25/20 A2997 RMK A01 T02540195  RH  070%=      5-min Rain = 0
KAHS 181121Z 19009KT 25/20 A2997 RMK A01 T02540195  RH  070%=      5-min Rain = 0
KAHS 181122Z 18011KT 25/20 A2997 RMK A01 T02530195  RH  070%=      5-min Rain = 0
KAHS 181123Z 19011KT 25/20 A2997 RMK A01 T02530196  RH  071%=      5-min Rain = 0
KAHS 181124Z 19009KT 25/20 A2997 RMK A01 T02530196  RH  071%=      5-min Rain = 0
KAHS 181125Z 18009KT 25/20 A2996 RMK A01 T02520196  RH  071%=      5-min Rain = 0
KAHS 181126Z 19009KT 25/20 A2997 RMK A01 T02520196  RH  071%=      5-min Rain = 0
KAHS 181127Z 19011KT 25/20 A2996 RMK A01 T02520196  RH  071%=      5-min Rain = 0
KAHS 181128Z 19011G16KT 25/20 A2997 RMK A01 T02520196  RH  071%=      5-min Rain = 0
KAHS 181129Z 19009KT 25/20 A2997 RMK A01 T02520196  RH  071%=      5-min Rain = 0
KAHS 181130Z 19010KT 25/20 A2997 RMK A01 T02520196  RH  071%=      5-min Rain = 0
KAHS 181131Z 19010G15KT 25/20 A2997 RMK A01 T02520196  RH  071%=      5-min Rain = 0
KAHS 181132Z 19011KT 25/20 A2997 RMK A01 T02520197  RH  071%=      5-min Rain = 0
KAHS 181133Z 19010KT 25/20 A2997 RMK A01 T02520197  RH  071%=      5-min Rain = 0
KAHS 181134Z 19011KT 25/20 A2997 RMK A01 T02520197  RH  071%=      5-min Rain = 0
KAHS 181135Z 19008KT 25/20 A2997 RMK A01 T02520197  RH  071%=      5-min Rain = 0
KAHS 181136Z 19011KT 25/20 A2997 RMK A01 T02520197  RH  072%=      5-min Rain = 0
KAHS 181137Z 19009KT 25/20 A2997 RMK A01 T02520197  RH  072%=      5-min Rain = 0
KAHS 181138Z 20012KT 25/20 A2997 RMK A01 T02510197  RH  072%=      5-min Rain = 0
KAHS 181139Z 20012KT 25/20 A2997 RMK A01 T02510197  RH  072%=      5-min Rain = 0
KAHS 181140Z 19011G16KT 25/20 A2997 RMK A01 T02520197  RH  072%=      5-min Rain = 0
KAHS 181141Z 20009G15KT 25/20 A2997 RMK A01 T02520197  RH  072%=      5-min Rain = 0
KAHS 181142Z 19011KT 25/20 A2997 RMK A01 T02520198  RH  072%=      5-min Rain = 0
KAHS 181143Z 19009KT 25/20 A2997 RMK A01 T02510197  RH  072%=      5-min Rain = 0
KAHS 181144Z 20008G13KT 25/20 A2997 RMK A01 T02510197  RH  072%=      5-min Rain = 0
KAHS 181145Z 20009KT 25/20 A2997 RMK A01 T02510198  RH  072%=      5-min Rain = 0
KAHS 181146Z 20009G14KT 25/20 A2997 RMK A01 T02510197  RH  072%=      5-min Rain = 0
KAHS 181147Z 20006KT 25/20 A2997 RMK A01 T02510197  RH  072%=      5-min Rain = 0
KAHS 181148Z 21011KT 25/20 A2997 RMK A01 T02510197  RH  072%=      5-min Rain = 0
KAHS 181149Z 21010KT 25/20 A2997 RMK A01 T02500197  RH  072%=      5-min Rain = 0
KAHS 181150Z 21011KT 25/20 A2997 RMK A01 T02510197  RH  072%=      5-min Rain = 0
KAHS 181151Z 20011G16KT 25/20 A2997 RMK A01 T02500197  RH  072%=      5-min Rain = 0
KAHS 181152Z 20012KT 25/20 A2997 RMK A01 T02500197  RH  072%=      5-min Rain = 0
KAHS 181153Z 20010KT 25/20 A2997 RMK A01 T02510198  RH  072%=      5-min Rain = 0
KAHS 181154Z 20010KT 25/20 A2997 RMK A01 T02510198  RH  072%=      5-min Rain = 0
KAHS 181155Z 20006G12KT 25/20 A2997 RMK A01 T02510198  RH  072%=      5-min Rain = 0
KAHS 181156Z 20009KT 25/20 A2997 RMK A01 T02500197  RH  073%=      5-min Rain = 0
KAHS 181157Z 20008KT 25/20 A2997 RMK A01 T02500198  RH  073%=      5-min Rain = 0
KAHS 181158Z 20008KT 25/20 A2997 RMK A01 T02500198  RH  073%=      5-min Rain = 0
KAHS 181159Z 19007KT 25/20 A2997 RMK A01 T02490198  RH  073%=      5-min Rain = 0
KAHS 181200Z 20008KT 25/20 A2997 RMK A01 T02490198  RH  073%=      5-min Rain = 0
KAHS 181201Z 20008KT 25/20 A2997 RMK A01 T02490198  RH  073%=      5-min Rain = 0
KAHS 181202Z 21010KT 25/20 A2997 RMK A01 T02490198  RH  073%=      5-min Rain = 0
KAHS 181203Z 19009KT 25/20 A2997 RMK A01 T02490198  RH  073%=      5-min Rain = 0
KAHS 181204Z 20009KT 25/20 A2997 RMK A01 T02490198  RH  073%=      5-min Rain = 0
KAHS 181205Z 20010KT 25/20 A2997 RMK A01 T02490198  RH  073%=      5-min Rain = 0
KAHS 181206Z 20010KT 25/20 A2997 RMK A01 T02490198  RH  073%=      5-min Rain = 0
KAHS 181207Z 20008KT 25/20 A2997 RMK A01 T02500198  RH  073%=      5-min Rain = 0
KAHS 181208Z 19010KT 25/20 A2997 RMK A01 T02500199  RH  073%=      5-min Rain = 0
KAHS 181209Z 20011KT 25/20 A2997 RMK A01 T02500199  RH  073%=      5-min Rain = 0
KAHS 181210Z 19011KT 25/20 A2997 RMK A01 T02500199  RH  073%=      5-min Rain = 0
KAHS 181211Z 19010KT 25/20 A2997 RMK A01 T02500199  RH  073%=      5-min Rain = 0
KAHS 181212Z 19009KT 25/20 A2997 RMK A01 T02500199  RH  073%=      5-min Rain = 0
KAHS 181213Z 19007G13KT 25/20 A2997 RMK A01 T02500199  RH  073%=      5-min Rain = 0
KAHS 181214Z 19009KT 25/20 A2997 RMK A01 T02500199  RH  073%=      5-min Rain = 0
KAHS 181215Z 19011KT 25/20 A2997 RMK A01 T02500199  RH  073%=      5-min Rain = 0
KAHS 181216Z 19010KT 25/20 A2997 RMK A01 T02500199  RH  073%=      5-min Rain = 0
KAHS 181217Z 19007KT 25/20 A2997 RMK A01 T02500200  RH  073%=      5-min Rain = 0
KAHS 181218Z 20007G13KT 25/20 A2997 RMK A01 T02510200  RH  073%=      5-min Rain = 0
KAHS 181219Z 20011KT 25/20 A2997 RMK A01 T02500200  RH  073%=      5-min Rain = 0
KAHS 181220Z 19009KT 25/20 A2997 RMK A01 T02510200  RH  073%=      5-min Rain = 0
KAHS 181221Z 20008KT 25/20 A2997 RMK A01 T02510200  RH  073%=      5-min Rain = 0
KAHS 181222Z 20011KT 25/20 A2997 RMK A01 T02510200  RH  073%=      5-min Rain = 0
KAHS 181223Z 19009KT 25/20 A2997 RMK A01 T02510200  RH  073%=      5-min Rain = 0
KAHS 181224Z 19012KT 25/20 A2997 RMK A01 T02510200  RH  073%=      5-min Rain = 0
KAHS 181225Z 20011KT 25/20 A2997 RMK A01 T02520201  RH  073%=      5-min Rain = 0
KAHS 181226Z 19010KT 25/20 A2997 RMK A01 T02520201  RH  073%=      5-min Rain = 0
KAHS 181227Z 20011KT 25/20 A2997 RMK A01 T02520201  RH  073%=      5-min Rain = 0
KAHS 181228Z 20009KT 25/20 A2997 RMK A01 T02520201  RH  073%=      5-min Rain = 0
KAHS 181229Z 20010KT 25/20 A2997 RMK A01 T02520202  RH  073%=      5-min Rain = 0
KAHS 181230Z 20014KT 25/20 A2997 RMK A01 T02520201  RH  073%=      5-min Rain = 0
KAHS 181231Z 20011KT 25/20 A2997 RMK A01 T02530202  RH  073%=      5-min Rain = 0
KAHS 181232Z 20009KT 25/20 A2997 RMK A01 T02530202  RH  073%=      5-min Rain = 0
KAHS 181233Z 20009KT 25/20 A2997 RMK A01 T02530202  RH  073%=      5-min Rain = 0
KAHS 181234Z 19011KT 25/20 A2997 RMK A01 T02530202  RH  073%=      5-min Rain = 0
KAHS 181235Z 20011KT 25/20 A2997 RMK A01 T02530202  RH  073%=      5-min Rain = 0
KAHS 181236Z 20012KT 25/20 A2997 RMK A01 T02530202  RH  073%=      5-min Rain = 0
KAHS 181237Z 20011KT 25/20 A2997 RMK A01 T02540202  RH  073%=      5-min Rain = 0
KAHS 181238Z 20010KT 25/20 A2997 RMK A01 T02540202  RH  073%=      5-min Rain = 0
KAHS 181239Z 20011KT 25/20 A2997 RMK A01 T02540202  RH  073%=      5-min Rain = 0
KAHS 181240Z 19011G17KT 25/20 A2997 RMK A01 T02540202  RH  073%=      5-min Rain = 0
KAHS 181241Z 19014KT 25/20 A2996 RMK A01 T02540203  RH  073%=      5-min Rain = 0
KAHS 181242Z 19012KT 25/20 A2997 RMK A01 T02540203  RH  073%=      5-min Rain = 0
KAHS 181243Z 19012KT 26/20 A2997 RMK A01 T02550203  RH  073%=      5-min Rain = 0
KAHS 181244Z 19011KT 26/20 A2997 RMK A01 T02550203  RH  073%=      5-min Rain = 0
KAHS 181245Z 20013G18KT 26/20 A2996 RMK A01 T02560204  RH  073%=      5-min Rain = 0
KAHS 181246Z 19013KT 26/20 A2996 RMK A01 T02560203  RH  073%=      5-min Rain = 0
KAHS 181247Z 19013G18KT 26/20 A2996 RMK A01 T02560203  RH  073%=      5-min Rain = 0
KAHS 181248Z 19015KT 26/20 A2996 RMK A01 T02560203  RH  073%=      5-min Rain = 0
KAHS 181249Z 19014KT 26/20 A2996 RMK A01 T02560203  RH  073%=      5-min Rain = 0
KAHS 181250Z 19012KT 26/20 A2996 RMK A01 T02560204  RH  073%=      5-min Rain = 0
KAHS 181251Z 19014G19KT 26/20 A2996 RMK A01 T02570204  RH  073%=      5-min Rain = 0
KAHS 181252Z 19014KT 26/20 A2996 RMK A01 T02570204  RH  072%=      5-min Rain = 0
KAHS 181253Z 19014KT 26/20 A2996 RMK A01 T02570204  RH  072%=      5-min Rain = 0
KAHS 181254Z 20013KT 26/20 A2996 RMK A01 T02570204  RH  073%=      5-min Rain = 0
KAHS 181255Z 20012G19KT 26/20 A2996 RMK A01 T02580204  RH  072%=      5-min Rain = 0
KAHS 181256Z 20012KT 26/20 A2997 RMK A01 T02580204  RH  072%=      5-min Rain = 0
KAHS 181257Z 20010KT 26/20 A2997 RMK A01 T02580204  RH  072%=      5-min Rain = 0
KAHS 181258Z 19012G17KT 26/21 A2997 RMK A01 T02590205  RH  072%=      5-min Rain = 0
KAHS 181259Z 20012KT 26/21 A2997 RMK A01 T02590205  RH  072%=      5-min Rain = 0
KAHS 181300Z 20014KT 26/20 A2997 RMK A01 T02590204  RH  072%=      5-min Rain = 0
KAHS 181301Z 20012KT 26/21 A2997 RMK A01 T02590205  RH  072%=      5-min Rain = 0
KAHS 181302Z 20013G19KT 26/21 A2997 RMK A01 T02600205  RH  072%=      5-min Rain = 0
KAHS 181303Z 20012G18KT 26/21 A2997 RMK A01 T02600205  RH  072%=      5-min Rain = 0
KAHS 181304Z 19012KT 26/21 A2997 RMK A01 T02600205  RH  072%=      5-min Rain = 0
KAHS 181305Z 19014KT 26/21 A2997 RMK A01 T02610205  RH  071%=      5-min Rain = 0
KAHS 181306Z 19013KT 26/21 A2996 RMK A01 T02610205  RH  071%=      5-min Rain = 0
KAHS 181307Z 19016KT 26/21 A2996 RMK A01 T02610205  RH  071%=      5-min Rain = 0
KAHS 181308Z 18013KT 26/21 A2996 RMK A01 T02610205  RH  071%=      5-min Rain = 0
KAHS 181309Z 19012G17KT 26/21 A2996 RMK A01 T02610206  RH  071%=      5-min Rain = 0
KAHS 181310Z 20013KT 26/21 A2996 RMK A01 T02610206  RH  071%=      5-min Rain = 0
KAHS 181311Z 20010KT 26/21 A2996 RMK A01 T02620206  RH  071%=      5-min Rain = 0
KAHS 181312Z 20013G18KT 26/21 A2996 RMK A01 T02630206  RH  071%=      5-min Rain = 0
KAHS 181313Z 19015KT 26/21 A2996 RMK A01 T02620206  RH  071%=      5-min Rain = 0
KAHS 181314Z 19012KT 26/21 A2997 RMK A01 T02630207  RH  071%=      5-min Rain = 0
KAHS 181315Z 19014KT 26/21 A2996 RMK A01 T02630206  RH  071%=      5-min Rain = 0
KAHS 181316Z 20014G19KT 26/21 A2996 RMK A01 T02630206  RH  071%=      5-min Rain = 0
KAHS 181317Z 19015KT 26/21 A2997 RMK A01 T02630206  RH  071%=      5-min Rain = 0
KAHS 181318Z 21015KT 26/21 A2997 RMK A01 T02640206  RH  071%=      5-min Rain = 0
KAHS 181319Z 20014G19KT 26/21 A2997 RMK A01 T02640206  RH  070%=      5-min Rain = 0
KAHS 181320Z 19012G17KT 26/21 A2997 RMK A01 T02640207  RH  071%=      5-min Rain = 0
KAHS 181321Z 19012KT 27/21 A2996 RMK A01 T02650207  RH  070%=      5-min Rain = 0
KAHS 181322Z 20012G17KT 27/21 A2996 RMK A01 T02660207  RH  070%=      5-min Rain = 0
KAHS 181323Z 20014G19KT 27/21 A2996 RMK A01 T02660206  RH  070%=      5-min Rain = 0
KAHS 181324Z 19012G17KT 27/21 A2997 RMK A01 T02660206  RH  070%=      5-min Rain = 0
KAHS 181325Z 19014KT 27/21 A2996 RMK A01 T02660206  RH  070%=      5-min Rain = 0
KAHS 181326Z 20016KT 27/21 A2996 RMK A01 T02660206  RH  070%=      5-min Rain = 0
KAHS 181327Z 19014KT 27/21 A2996 RMK A01 T02660206  RH  070%=      5-min Rain = 0
KAHS 181328Z 19011KT 27/21 A2996 RMK A01 T02660207  RH  070%=      5-min Rain = 0
KAHS 181329Z 20013KT 27/21 A2996 RMK A01 T02670207  RH  070%=      5-min Rain = 0
KAHS 181330Z 19014KT 27/21 A2996 RMK A01 T02670206  RH  069%=      5-min Rain = 0
KAHS 181331Z 20016KT 27/21 A2996 RMK A01 T02660206  RH  070%=      5-min Rain = 0
KAHS 181332Z 19015G20KT 27/21 A2996 RMK A01 T02660206  RH  070%=      5-min Rain = 0
KAHS 181333Z 19017KT 27/21 A2996 RMK A01 T02660206  RH  070%=      5-min Rain = 0
KAHS 181334Z 20015G20KT 27/21 A2996 RMK A01 T02670207  RH  070%=      5-min Rain = 0
KAHS 181335Z 19017G23KT 27/21 A2996 RMK A01 T02670206  RH  069%=      5-min Rain = 0
KAHS 181336Z 19016G21KT 27/21 A2996 RMK A01 T02670206  RH  069%=      5-min Rain = 0
KAHS 181337Z 19016KT 27/21 A2996 RMK A01 T02670206  RH  069%=      5-min Rain = 0
KAHS 181338Z 19011KT 27/21 A2996 RMK A01 T02680207  RH  069%=      5-min Rain = 0
KAHS 181339Z 20012KT 27/21 A2996 RMK A01 T02700208  RH  069%=      5-min Rain = 0
KAHS 181340Z 19013G18KT 27/21 A2996 RMK A01 T02700207  RH  068%=      5-min Rain = 0
KAHS 181341Z 19012G17KT 27/21 A2996 RMK A01 T02710208  RH  068%=      5-min Rain = 0
KAHS 181342Z 20013KT 27/21 A2996 RMK A01 T02720207  RH  068%=      5-min Rain = 0
KAHS 181343Z 19015G21KT 27/21 A2996 RMK A01 T02710207  RH  068%=      5-min Rain = 0
KAHS 181344Z 18016KT 27/21 A2996 RMK A01 T02710207  RH  068%=      5-min Rain = 0
KAHS 181345Z 19017G23KT 27/21 A2996 RMK A01 T02710207  RH  068%=      5-min Rain = 0
KAHS 181346Z 19015G20KT 27/21 A2996 RMK A01 T02710206  RH  068%=      5-min Rain = 0
KAHS 181347Z 19018KT 27/21 A2996 RMK A01 T02710206  RH  068%=      5-min Rain = 0
KAHS 181348Z 19014KT 27/21 A2996 RMK A01 T02710207  RH  068%=      5-min Rain = 0
KAHS 181349Z 20012KT 27/21 A2996 RMK A01 T02720208  RH  068%=      5-min Rain = 0
KAHS 181350Z 19014G19KT 27/21 A2996 RMK A01 T02730207  RH  067%=      5-min Rain = 0
KAHS 181351Z 19015KT 27/21 A2996 RMK A01 T02730207  RH  067%=      5-min Rain = 0
KAHS 181352Z 20018KT 27/21 A2996 RMK A01 T02730207  RH  067%=      5-min Rain = 0
KAHS 181353Z 19014G19KT 27/21 A2996 RMK A01 T02730207  RH  067%=      5-min Rain = 0
KAHS 181354Z 20016G21KT 27/21 A2996 RMK A01 T02730206  RH  067%=      5-min Rain = 0
KAHS 181355Z 21015G20KT 27/21 A2996 RMK A01 T02730206  RH  067%=      5-min Rain = 0
KAHS 181356Z 20015G20KT 27/21 A2996 RMK A01 T02740206  RH  066%=      5-min Rain = 0
KAHS 181357Z 19014G19KT 28/21 A2996 RMK A01 T02750207  RH  066%=      5-min Rain = 0
KAHS 181358Z 19018KT 28/21 A2996 RMK A01 T02750206  RH  066%=      5-min Rain = 0
KAHS 181359Z 20016G21KT 28/21 A2996 RMK A01 T02750205  RH  066%=      5-min Rain = 0
KAHS 181400Z 20016KT 27/21 A2996 RMK A01 T02740206  RH  066%=      5-min Rain = 0
KAHS 181401Z 19017KT 27/21 A2996 RMK A01 T02740206  RH  067%=      5-min Rain = 0
KAHS 181402Z 18017G24KT 27/21 A2996 RMK A01 T02740206  RH  067%=      5-min Rain = 0
KAHS 181403Z 20015G20KT 28/21 A2996 RMK A01 T02750206  RH  066%=      5-min Rain = 0
KAHS 181404Z 19017G22KT 28/21 A2996 RMK A01 T02760206  RH  066%=      5-min Rain = 0
KAHS 181405Z 20018G23KT 28/21 A2996 RMK A01 T02750206  RH  066%=      5-min Rain = 0
KAHS 181406Z 19017G22KT 28/21 A2996 RMK A01 T02760206  RH  066%=      5-min Rain = 0
KAHS 181407Z 19017G24KT 28/21 A2996 RMK A01 T02760206  RH  066%=      5-min Rain = 0
KAHS 181408Z 20012KT 28/21 A2996 RMK A01 T02770206  RH  065%=      5-min Rain = 0
KAHS 181409Z 20016KT 28/21 A2996 RMK A01 T02790206  RH  064%=      5-min Rain = 0
KAHS 181410Z 20012G17KT 28/21 A2996 RMK A01 T02790205  RH  064%=      5-min Rain = 0
KAHS 181411Z 19017KT 28/21 A2996 RMK A01 T02790206  RH  064%=      5-min Rain = 0
KAHS 181412Z 19014G20KT 28/21 A2996 RMK A01 T02790207  RH  065%=      5-min Rain = 0
KAHS 181413Z 19017G24KT 28/21 A2996 RMK A01 T02790206  RH  064%=      5-min Rain = 0
KAHS 181414Z 19014G20KT 28/21 A2996 RMK A01 T02790207  RH  065%=      5-min Rain = 0
KAHS 181415Z 19017KT 28/21 A2996 RMK A01 T02790206  RH  065%=      5-min Rain = 0
KAHS 181416Z 19019KT 28/21 A2996 RMK A01 T02790207  RH  065%=      5-min Rain = 0
KAHS 181417Z 20018G23KT 28/21 A2996 RMK A01 T02780206  RH  065%=      5-min Rain = 0
KAHS 181418Z 20016KT 28/21 A2996 RMK A01 T02780206  RH  065%=      5-min Rain = 0
KAHS 181419Z 20020KT 28/21 A2996 RMK A01 T02790206  RH  064%=      5-min Rain = 0
KAHS 181420Z 20017G22KT 28/21 A2996 RMK A01 T02780206  RH  065%=      5-min Rain = 0
KAHS 181421Z 20018G23KT 28/21 A2996 RMK A01 T02780205  RH  064%=      5-min Rain = 0
KAHS 181422Z 20019KT 28/21 A2996 RMK A01 T02780205  RH  064%=      5-min Rain = 0
KAHS 181423Z 19018G23KT 28/21 A2996 RMK A01 T02790205  RH  064%=      5-min Rain = 0
KAHS 181424Z 20017G23KT 28/21 A2996 RMK A01 T02790205  RH  064%=      5-min Rain = 0
KAHS 181425Z 19017KT 28/21 A2996 RMK A01 T02810206  RH  064%=      5-min Rain = 0
KAHS 181426Z 20015G20KT 28/21 A2996 RMK A01 T02820206  RH  063%=      5-min Rain = 0
KAHS 181427Z 20016KT 28/21 A2996 RMK A01 T02820206  RH  063%=      5-min Rain = 0
KAHS 181428Z 21018KT 28/21 A2996 RMK A01 T02820206  RH  063%=      5-min Rain = 0
KAHS 181429Z 21014G19KT 28/21 A2996 RMK A01 T02810206  RH  063%=      5-min Rain = 0
KAHS 181430Z 20015KT 28/21 A2996 RMK A01 T02830207  RH  063%=      5-min Rain = 0
KAHS 181431Z 19018G23KT 28/21 A2996 RMK A01 T02830206  RH  063%=      5-min Rain = 0
KAHS 181432Z 20018G24KT 28/21 A2996 RMK A01 T02820206  RH  063%=      5-min Rain = 0
KAHS 181433Z 20018G25KT 28/20 A2996 RMK A01 T02820204  RH  063%=      5-min Rain = 0
KAHS 181434Z 19016G21KT 28/21 A2996 RMK A01 T02810205  RH  063%=      5-min Rain = 0
KAHS 181435Z 19018G24KT 28/21 A2996 RMK A01 T02820205  RH  063%=      5-min Rain = 0
KAHS 181436Z 19018KT 28/21 A2996 RMK A01 T02830205  RH  063%=      5-min Rain = 0
KAHS 181437Z 19016G21KT 28/21 A2996 RMK A01 T02840205  RH  062%=      5-min Rain = 0
KAHS 181438Z 21015G21KT 29/21 A2996 RMK A01 T02860207  RH  062%=      5-min Rain = 0
KAHS 181439Z 20013G18KT 29/21 A2996 RMK A01 T02870207  RH  062%=      5-min Rain = 0
KAHS 181440Z 21015KT 29/21 A2996 RMK A01 T02880206  RH  061%=      5-min Rain = 0
KAHS 181441Z 21015KT 29/21 A2996 RMK A01 T02860205  RH  061%=      5-min Rain = 0
KAHS 181442Z 21014G20KT 29/21 A2996 RMK A01 T02870206  RH  062%=      5-min Rain = 0
KAHS 181443Z 20012G18KT 29/21 A2996 RMK A01 T02890207  RH  061%=      5-min Rain = 0
KAHS 181444Z 19015KT 29/21 A2996 RMK A01 T02910207  RH  061%=      5-min Rain = 0
KAHS 181445Z 20015KT 29/21 A2997 RMK A01 T02900207  RH  061%=      5-min Rain = 0
KAHS 181446Z 21011KT 29/21 A2997 RMK A01 T02900207  RH  061%=      5-min Rain = 0
KAHS 181447Z 20015KT 29/21 A2996 RMK A01 T02910207  RH  061%=      5-min Rain = 0
KAHS 181448Z 20016G21KT 29/21 A2996 RMK A01 T02900206  RH  061%=      5-min Rain = 0
KAHS 181449Z 19015KT 29/21 A2996 RMK A01 T02900207  RH  061%=      5-min Rain = 0
KAHS 181450Z 19016KT 29/21 A2996 RMK A01 T02910207  RH  060%=      5-min Rain = 0
KAHS 181451Z 21017KT 29/21 A2996 RMK A01 T02910206  RH  060%=      5-min Rain = 0
KAHS 181452Z 20014G19KT 29/21 A2996 RMK A01 T02910205  RH  060%=      5-min Rain = 0
KAHS 181453Z 20010G15KT 29/21 A2996 RMK A01 T02930207  RH  060%=      5-min Rain = 0
KAHS 181454Z 21013G19KT 30/21 A2996 RMK A01 T02960207  RH  059%=      5-min Rain = 0
KAHS 181455Z 20017KT 29/20 A2996 RMK A01 T02940204  RH  058%=      5-min Rain = 0
KAHS 181456Z 20016KT 29/21 A2996 RMK A01 T02930205  RH  059%=      5-min Rain = 0
KAHS 181457Z 19014KT 29/21 A2996 RMK A01 T02940206  RH  059%=      5-min Rain = 0
KAHS 181458Z 19018KT 30/21 A2996 RMK A01 T02950205  RH  058%=      5-min Rain = 0
KAHS 181459Z 20016KT 29/20 A2996 RMK A01 T02940203  RH  058%=      5-min Rain = 0
KAHS 181500Z 20017KT 29/20 A2996 RMK A01 T02940203  RH  058%=      5-min Rain = 0
KAHS 181501Z 20015G20KT 30/20 A2996 RMK A01 T02950203  RH  058%=      5-min Rain = 0
KAHS 181502Z 21014G19KT 30/20 A2996 RMK A01 T02950204  RH  058%=      5-min Rain = 0
KAHS 181503Z 21015G20KT 30/20 A2996 RMK A01 T02950203  RH  058%=      5-min Rain = 0
KAHS 181504Z 19014KT 30/20 A2996 RMK A01 T02950204  RH  058%=      5-min Rain = 0
KAHS 181505Z 19016KT 30/20 A2996 RMK A01 T02970204  RH  058%=      5-min Rain = 0
KAHS 181506Z 20016G22KT 30/20 A2996 RMK A01 T02960203  RH  058%=      5-min Rain = 0
KAHS 181507Z 19019KT 30/20 A2996 RMK A01 T02950202  RH  057%=      5-min Rain = 0
KAHS 181508Z 20015KT 29/20 A2996 RMK A01 T02940203  RH  058%=      5-min Rain = 0
KAHS 181509Z 20016G22KT 30/21 A2996 RMK A01 T02970205  RH  058%=      5-min Rain = 0
KAHS 181510Z 21018KT 30/20 A2996 RMK A01 T02970202  RH  057%=      5-min Rain = 0
KAHS 181511Z 20018KT 30/20 A2996 RMK A01 T02950202  RH  057%=      5-min Rain = 0
KAHS 181512Z 20015G20KT 30/20 A2996 RMK A01 T02950202  RH  057%=      5-min Rain = 0
KAHS 181513Z 20014G20KT 30/20 A2996 RMK A01 T02970202  RH  057%=      5-min Rain = 0
KAHS 181514Z 21014G20KT 30/20 A2996 RMK A01 T02990203  RH  056%=      5-min Rain = 0
KAHS 181515Z 20012G17KT 30/20 A2996 RMK A01 T03000203  RH  056%=      5-min Rain = 0
KAHS 181516Z 20013G18KT 30/21 A2996 RMK A01 T03010206  RH  057%=      5-min Rain = 0
KAHS 181517Z 19013G18KT 30/21 A2996 RMK A01 T03030205  RH  056%=      5-min Rain = 0
KAHS 181518Z 21014G19KT 30/20 A2996 RMK A01 T03010203  RH  056%=      5-min Rain = 0
KAHS 181519Z 21015KT 30/20 A2996 RMK A01 T03010201  RH  055%=      5-min Rain = 0
KAHS 181520Z 21014KT 30/20 A2996 RMK A01 T03000200  RH  055%=      5-min Rain = 0
KAHS 181521Z 20012KT 30/20 A2996 RMK A01 T03010203  RH  056%=      5-min Rain = 0
KAHS 181522Z 19019KT 30/20 A2996 RMK A01 T03030203  RH  055%=      5-min Rain = 0
KAHS 181523Z 20017KT 30/20 A2996 RMK A01 T03000201  RH  055%=      5-min Rain = 0
KAHS 181524Z 19016G21KT 30/20 A2996 RMK A01 T03000202  RH  056%=      5-min Rain = 0
KAHS 181525Z 20013G19KT 30/20 A2996 RMK A01 T03010202  RH  056%=      5-min Rain = 0
KAHS 181526Z 20010KT 30/20 A2996 RMK A01 T03040204  RH  055%=      5-min Rain = 0
KAHS 181527Z 20015G20KT 31/20 A2996 RMK A01 T03060202  RH  054%=      5-min Rain = 0
KAHS 181528Z 20016G21KT 30/20 A2996 RMK A01 T03040198  RH  053%=      5-min Rain = 0
KAHS 181529Z 20017KT 30/20 A2996 RMK A01 T03020199  RH  054%=      5-min Rain = 0
KAHS 181530Z 22013G18KT 30/20 A2996 RMK A01 T03010199  RH  054%=      5-min Rain = 0
KAHS 181531Z 21013G18KT 30/20 A2996 RMK A01 T03020201  RH  055%=      5-min Rain = 0
KAHS 181532Z 19014KT 30/20 A2996 RMK A01 T03040202  RH  054%=      5-min Rain = 0
KAHS 181533Z 19013KT 31/20 A2996 RMK A01 T03060201  RH  054%=      5-min Rain = 0
KAHS 181534Z 20015G20KT 31/20 A2996 RMK A01 T03060200  RH  053%=      5-min Rain = 0
KAHS 181535Z 20016G23KT 31/20 A2996 RMK A01 T03060200  RH  053%=      5-min Rain = 0
KAHS 181536Z 20014G19KT 31/20 A2996 RMK A01 T03050201  RH  054%=      5-min Rain = 0
KAHS 181537Z 20015KT 30/20 A2995 RMK A01 T03040200  RH  054%=      5-min Rain = 0
KAHS 181538Z 19016KT 30/20 A2995 RMK A01 T03040200  RH  054%=      5-min Rain = 0
KAHS 181539Z 19017KT 30/20 A2995 RMK A01 T03040200  RH  054%=      5-min Rain = 0
KAHS 181540Z 19017KT 30/20 A2995 RMK A01 T03030199  RH  054%=      5-min Rain = 0
KAHS 181541Z 20012KT 30/20 A2995 RMK A01 T03040201  RH  054%=      5-min Rain = 0
KAHS 181542Z 22017KT 31/20 A2995 RMK A01 T03060200  RH  053%=      5-min Rain = 0
KAHS 181543Z 21014G19KT 31/20 A2995 RMK A01 T03050200  RH  053%=      5-min Rain = 0
KAHS 181544Z 20016KT 31/20 A2995 RMK A01 T03070201  RH  053%=      5-min Rain = 0
KAHS 181545Z 19014G19KT 31/20 A2995 RMK A01 T03070200  RH  053%=      5-min Rain = 0
KAHS 181546Z 19015G21KT 31/20 A2995 RMK A01 T03080202  RH  053%=      5-min Rain = 0
KAHS 181547Z 19015KT 31/20 A2995 RMK A01 T03070200  RH  053%=      5-min Rain = 0
KAHS 181548Z 19015G21KT 31/20 A2995 RMK A01 T03060200  RH  053%=      5-min Rain = 0
KAHS 181549Z 19016KT 31/20 A2995 RMK A01 T03050200  RH  053%=      5-min Rain = 0
KAHS 181550Z 19014KT 31/20 A2995 RMK A01 T03060199  RH  053%=      5-min Rain = 0
KAHS 181551Z 20014KT 31/20 A2995 RMK A01 T03070200  RH  053%=      5-min Rain = 0
KAHS 181552Z 19016KT 31/20 A2995 RMK A01 T03080201  RH  053%=      5-min Rain = 0
KAHS 181553Z 21011G17KT 31/20 A2995 RMK A01 T03100201  RH  052%=      5-min Rain = 0
KAHS 181554Z 21013G19KT 31/20 A2995 RMK A01 T03110201  RH  052%=      5-min Rain = 0
KAHS 181555Z 20017KT 31/20 A2995 RMK A01 T03110200  RH  052%=      5-min Rain = 0
KAHS 181556Z 20018G23KT 31/20 A2995 RMK A01 T03100199  RH  052%=      5-min Rain = 0
KAHS 181557Z 21017G22KT 31/20 A2995 RMK A01 T03090198  RH  052%=      5-min Rain = 0
KAHS 181558Z 20015KT 31/20 A2995 RMK A01 T03090198  RH  052%=      5-min Rain = 0
KAHS 181559Z 21012G17KT 31/20 A2995 RMK A01 T03130199  RH  051%=      5-min Rain = 0
KAHS 181600Z 21017KT 31/20 A2995 RMK A01 T03140197  RH  050%=      5-min Rain = 0
KAHS 181601Z 22013G18KT 31/20 A2995 RMK A01 T03110197  RH  051%=      5-min Rain = 0
KAHS 181602Z 21011G16KT 31/20 A2995 RMK A01 T03110199  RH  051%=      5-min Rain = 0
KAHS 181603Z 21014KT 31/20 A2995 RMK A01 T03140200  RH  051%=      5-min Rain = 0
KAHS 181604Z 20013KT 32/20 A2995 RMK A01 T03150200  RH  051%=      5-min Rain = 0
KAHS 181605Z 21015G20KT 32/20 A2995 RMK A01 T03170200  RH  050%=      5-min Rain = 0
KAHS 181606Z 22013KT 32/20 A2995 RMK A01 T03180199  RH  050%=      5-min Rain = 0
KAHS 181607Z 21013KT 32/20 A2995 RMK A01 T03180199  RH  049%=      5-min Rain = 0
KAHS 181608Z 21017G22KT 32/20 A2995 RMK A01 T03190199  RH  049%=      5-min Rain = 0
KAHS 181609Z 20017KT 32/20 A2995 RMK A01 T03160197  RH  050%=      5-min Rain = 0
KAHS 181610Z 21015KT 32/20 A2995 RMK A01 T03150198  RH  050%=      5-min Rain = 0
KAHS 181611Z 19015KT 32/20 A2995 RMK A01 T03170198  RH  049%=      5-min Rain = 0
KAHS 181612Z 20012KT 32/20 A2995 RMK A01 T03180199  RH  049%=      5-min Rain = 0
KAHS 181613Z 18014KT 32/20 A2995 RMK A01 T03180199  RH  049%=      5-min Rain = 0
KAHS 181614Z 20014KT 32/20 A2995 RMK A01 T03180199  RH  050%=      5-min Rain = 0
KAHS 181615Z 20013KT 32/20 A2995 RMK A01 T03170199  RH  050%=      5-min Rain = 0
KAHS 181616Z 20010KT 32/20 A2995 RMK A01 T03190201  RH  050%=      5-min Rain = 0
KAHS 181617Z 20010G15KT 32/20 A2995 RMK A01 T03220201  RH  049%=      5-min Rain = 0
KAHS 181618Z 20012KT 33/20 A2995 RMK A01 T03260201  RH  048%=      5-min Rain = 0
KAHS 181619Z 19016G22KT 33/20 A2995 RMK A01 T03250198  RH  047%=      5-min Rain = 0
KAHS 181620Z 20018KT 32/20 A2995 RMK A01 T03210197  RH  048%=      5-min Rain = 0
KAHS 181621Z 21016KT 32/20 A2995 RMK A01 T03190195  RH  048%=      5-min Rain = 0
KAHS 181622Z 22015G20KT 32/20 A2995 RMK A01 T03180196  RH  048%=      5-min Rain = 0
KAHS 181623Z 22014KT 32/20 A2995 RMK A01 T03190197  RH  048%=      5-min Rain = 0
KAHS 181624Z 22013G19KT 32/20 A2994 RMK A01 T03200198  RH  048%=      5-min Rain = 0
KAHS 181625Z 18011KT 32/20 A2995 RMK A01 T03240201  RH  048%=      5-min Rain = 0
KAHS 181626Z 19013KT 32/20 A2995 RMK A01 T03240200  RH  048%=      5-min Rain = 0
KAHS 181627Z 19014G19KT 32/20 A2995 RMK A01 T03220198  RH  048%=      5-min Rain = 0
KAHS 181628Z 18013G18KT 32/20 A2995 RMK A01 T03220198  RH  048%=      5-min Rain = 0
KAHS 181629Z 17014KT 32/20 A2995 RMK A01 T03240199  RH  048%=      5-min Rain = 0
KAHS 181630Z 18011KT 33/20 A2995 RMK A01 T03250200  RH  048%=      5-min Rain = 0
KAHS 181631Z 19011KT 33/20 A2995 RMK A01 T03280201  RH  047%=      5-min Rain = 0
KAHS 181632Z 18015KT 33/20 A2995 RMK A01 T03270197  RH  046%=      5-min Rain = 0
KAHS 181633Z 19014G20KT 33/20 A2995 RMK A01 T03260196  RH  046%=      5-min Rain = 0
KAHS 181634Z 20011KT 33/20 A2995 RMK A01 T03290196  RH  046%=      5-min Rain = 0
KAHS 181635Z 20011KT 33/20 A2995 RMK A01 T03270197  RH  046%=      5-min Rain = 0
KAHS 181636Z 19012KT 33/20 A2995 RMK A01 T03270199  RH  047%=      5-min Rain = 0
KAHS 181637Z 18015KT 33/20 A2995 RMK A01 T03280199  RH  047%=      5-min Rain = 0
KAHS 181638Z 18013G19KT 33/20 A2995 RMK A01 T03250198  RH  047%=      5-min Rain = 0
KAHS 181639Z 18014KT 33/20 A2995 RMK A01 T03260200  RH  048%=      5-min Rain = 0
KAHS 181640Z 19011KT 33/20 A2995 RMK A01 T03310201  RH  047%=      5-min Rain = 0
KAHS 181641Z 19015KT 33/20 A2994 RMK A01 T03310197  RH  045%=      5-min Rain = 0
KAHS 181642Z 18015KT 33/20 A2995 RMK A01 T03300197  RH  046%=      5-min Rain = 0
KAHS 181643Z 19012KT 33/20 A2995 RMK A01 T03280198  RH  046%=      5-min Rain = 0
KAHS 181644Z 19013KT 33/20 A2994 RMK A01 T03270198  RH  046%=      5-min Rain = 0
KAHS 181645Z 17016G21KT 33/20 A2994 RMK A01 T03270198  RH  047%=      5-min Rain = 0
KAHS 181646Z 19016G21KT 33/20 A2994 RMK A01 T03280196  RH  046%=      5-min Rain = 0
KAHS 181647Z 20013G19KT 33/19 A2994 RMK A01 T03280194  RH  045%=      5-min Rain = 0
KAHS 181648Z 18011KT 33/20 A2994 RMK A01 T03290196  RH  045%=      5-min Rain = 0
KAHS 181649Z 18012KT 33/20 A2994 RMK A01 T03290197  RH  046%=      5-min Rain = 0
KAHS 181650Z 21016KT 33/20 A2994 RMK A01 T03310197  RH  045%=      5-min Rain = 0
KAHS 181651Z 22012KT 33/20 A2994 RMK A01 T03290196  RH  045%=      5-min Rain = 0
KAHS 181652Z 22014KT 33/20 A2994 RMK A01 T03300196  RH  045%=      5-min Rain = 0
KAHS 181653Z 22014G19KT 33/19 A2994 RMK A01 T03290194  RH  045%=      5-min Rain = 0
KAHS 181654Z 22012KT 33/20 A2994 RMK A01 T03300195  RH  045%=      5-min Rain = 0
KAHS 181655Z 21013KT 33/19 A2994 RMK A01 T03300193  RH  045%=      5-min Rain = 0
KAHS 181656Z 20012KT 33/20 A2994 RMK A01 T03310196  RH  045%=      5-min Rain = 0
KAHS 181657Z 19011KT 33/20 A2994 RMK A01 T03320199  RH  045%=      5-min Rain = 0
KAHS 181658Z 19012G17KT 33/20 A2994 RMK A01 T03340199  RH  045%=      5-min Rain = 0
KAHS 181659Z 20012KT 33/20 A2994 RMK A01 T03340197  RH  045%=      5-min Rain = 0
KAHS 181700Z 19011KT 34/20 A2994 RMK A01 T03360197  RH  044%=      5-min Rain = 0
KAHS 181701Z 19015KT 34/19 A2994 RMK A01 T03370193  RH  043%=      5-min Rain = 0
KAHS 181702Z 20013KT 33/19 A2994 RMK A01 T03340192  RH  043%=      5-min Rain = 0
KAHS 181703Z 19011KT 34/19 A2994 RMK A01 T03350193  RH  043%=      5-min Rain = 0
KAHS 181704Z 21009KT 34/19 A2994 RMK A01 T03360193  RH  043%=      5-min Rain = 0
KAHS 181705Z 20009KT 34/19 A2994 RMK A01 T03380194  RH  043%=      5-min Rain = 0
KAHS 181706Z 18013KT 34/20 A2994 RMK A01 T03390195  RH  043%=      5-min Rain = 0
KAHS 181707Z 19011KT 34/19 A2994 RMK A01 T03400194  RH  042%=      5-min Rain = 0
KAHS 181708Z 18015KT 34/19 A2994 RMK A01 T03410194  RH  042%=      5-min Rain = 0
KAHS 181709Z 18015KT 34/19 A2994 RMK A01 T03380193  RH  043%=      5-min Rain = 0
KAHS 181710Z 20012G17KT 34/19 A2994 RMK A01 T03380194  RH  043%=      5-min Rain = 0
KAHS 181711Z 20014KT 34/19 A2994 RMK A01 T03370193  RH  043%=      5-min Rain = 0
KAHS 181712Z 20011KT 33/19 A2994 RMK A01 T03340193  RH  043%=      5-min Rain = 0
KAHS 181713Z 17013KT 34/20 A2994 RMK A01 T03350195  RH  044%=      5-min Rain = 0
KAHS 181714Z 17015KT 34/20 A2994 RMK A01 T03380195  RH  043%=      5-min Rain = 0
KAHS 181715Z 21015KT 34/19 A2994 RMK A01 T03410194  RH  042%=      5-min Rain = 0
KAHS 181716Z 21013G20KT 34/19 A2994 RMK A01 T03390192  RH  042%=      5-min Rain = 0
KAHS 181717Z 19010KT 34/20 A2994 RMK A01 T03420196  RH  042%=      5-min Rain = 0
KAHS 181718Z 22011KT 34/19 A2994 RMK A01 T03420192  RH  041%=      5-min Rain = 0
KAHS 181719Z 21011G16KT 34/19 A2994 RMK A01 T03400191  RH  042%=      5-min Rain = 0
KAHS 181720Z 18013KT 34/19 A2994 RMK A01 T03410193  RH  042%=      5-min Rain = 0
KAHS 181721Z 20012KT 34/19 A2994 RMK A01 T03430192  RH  041%=      5-min Rain = 0
KAHS 181722Z 18011KT 34/19 A2994 RMK A01 T03420192  RH  041%=      5-min Rain = 0
KAHS 181723Z 18012KT 34/19 A2994 RMK A01 T03430193  RH  041%=      5-min Rain = 0
KAHS 181724Z 19009KT 34/20 A2994 RMK A01 T03440196  RH  042%=      5-min Rain = 0
KAHS 181725Z 22012G17KT 35/19 A2994 RMK A01 T03460193  RH  041%=      5-min Rain = 0
KAHS 181726Z 21013G18KT 34/19 A2994 RMK A01 T03430188  RH  040%=      5-min Rain = 0
KAHS 181727Z 21012KT 34/19 A2994 RMK A01 T03440190  RH  040%=      5-min Rain = 0
KAHS 181728Z 20010G15KT 35/19 A2994 RMK A01 T03450192  RH  041%=      5-min Rain = 0
KAHS 181729Z 18012KT 35/19 A2994 RMK A01 T03480194  RH  040%=      5-min Rain = 0
KAHS 181730Z 19014KT 35/19 A2994 RMK A01 T03470191  RH  040%=      5-min Rain = 0
KAHS 181731Z 18011KT 34/19 A2994 RMK A01 T03430190  RH  040%=      5-min Rain = 0
KAHS 181732Z 17012KT 35/19 A2994 RMK A01 T03450192  RH  041%=      5-min Rain = 0
KAHS 181733Z 18014G20KT 35/19 A2994 RMK A01 T03480191  RH  040%=      5-min Rain = 0
KAHS 181734Z 18014KT 35/19 A2994 RMK A01 T03450189  RH  040%=      5-min Rain = 0
KAHS 181735Z 20014KT 34/19 A2994 RMK A01 T03430191  RH  041%=      5-min Rain = 0
KAHS 181736Z 18011KT 34/19 A2994 RMK A01 T03440190  RH  040%=      5-min Rain = 0
KAHS 181737Z 17010KT 34/19 A2994 RMK A01 T03430189  RH  040%=      5-min Rain = 0
KAHS 181738Z 18008KT 34/19 A2994 RMK A01 T03430192  RH  041%=      5-min Rain = 0
KAHS 181739Z 17015KT 35/19 A2994 RMK A01 T03460191  RH  040%=      5-min Rain = 0
KAHS 181740Z 17016KT 35/19 A2994 RMK A01 T03450189  RH  040%=      5-min Rain = 0
KAHS 181741Z 18012G18KT 35/19 A2994 RMK A01 T03450189  RH  040%=      5-min Rain = 0
KAHS 181742Z 20012G17KT 35/19 A2993 RMK A01 T03470191  RH  040%=      5-min Rain = 0
KAHS 181743Z 19012KT 35/19 A2993 RMK A01 T03460191  RH  040%=      5-min Rain = 0
KAHS 181744Z 18014KT 35/19 A2993 RMK A01 T03470193  RH  040%=      5-min Rain = 0
KAHS 181745Z 17013KT 35/19 A2993 RMK A01 T03480191  RH  040%=      5-min Rain = 0
KAHS 181746Z 18011G16KT 35/19 A2993 RMK A01 T03460190  RH  040%=      5-min Rain = 0
KAHS 181747Z 18013KT 35/19 A2993 RMK A01 T03450191  RH  040%=      5-min Rain = 0
KAHS 181748Z 18013KT 35/19 A2993 RMK A01 T03450191  RH  040%=      5-min Rain = 0
KAHS 181749Z 18011KT 35/19 A2993 RMK A01 T03470192  RH  040%=      5-min Rain = 0
KAHS 181750Z 17014G20KT 35/19 A2993 RMK A01 T03490190  RH  039%=      5-min Rain = 0
KAHS 181751Z 21013KT 35/19 A2993 RMK A01 T03480187  RH  039%=      5-min Rain = 0
KAHS 181752Z 20009KT 34/19 A2993 RMK A01 T03440187  RH  039%=      5-min Rain = 0
KAHS 181753Z 19012KT 35/19 A2993 RMK A01 T03480190  RH  040%=      5-min Rain = 0
KAHS 181754Z 20014KT 35/19 A2993 RMK A01 T03500187  RH  038%=      5-min Rain = 0
KAHS 181755Z 21013KT 35/19 A2993 RMK A01 T03490186  RH  038%=      5-min Rain = 0
KAHS 181756Z 21010KT 35/19 A2993 RMK A01 T03470188  RH  039%=      5-min Rain = 0
KAHS 181757Z 20011G17KT 35/19 A2993 RMK A01 T03530191  RH  039%=      5-min Rain = 0
KAHS 181758Z 21012KT 35/19 A2993 RMK A01 T03510186  RH  038%=      5-min Rain = 0
KAHS 181759Z 20014KT 35/19 A2993 RMK A01 T03490187  RH  038%=      5-min Rain = 0
KAHS 181800Z 19010KT 35/19 A2993 RMK A01 T03510188  RH  038%=      5-min Rain = 0
KAHS 181801Z 20014KT 35/19 A2993 RMK A01 T03540189  RH  038%=      5-min Rain = 0
KAHS 181802Z 20013G18KT 35/19 A2993 RMK A01 T03540187  RH  037%=      5-min Rain = 0
KAHS 181803Z 19013G19KT 35/19 A2993 RMK A01 T03520186  RH  038%=      5-min Rain = 0
KAHS 181804Z 19012KT 35/19 A2993 RMK A01 T03540187  RH  038%=      5-min Rain = 0
KAHS 181805Z 19012KT 36/19 A2993 RMK A01 T03560185  RH  037%=      5-min Rain = 0
KAHS 181806Z 19011KT 36/19 A2993 RMK A01 T03570185  RH  037%=      5-min Rain = 0
KAHS 181807Z 20010KT 36/19 A2993 RMK A01 T03600188  RH  036%=      5-min Rain = 0
KAHS 181808Z 21012KT 36/19 A2993 RMK A01 T03570185  RH  036%=      5-min Rain = 0
KAHS 181809Z 19010KT 36/19 A2993 RMK A01 T03550187  RH  037%=      5-min Rain = 0
KAHS 181810Z 20010KT 36/19 A2992 RMK A01 T03550185  RH  037%=      5-min Rain = 0
KAHS 181811Z 18011KT 35/19 A2992 RMK A01 T03540187  RH  037%=      5-min Rain = 0
KAHS 181812Z 19010KT 36/19 A2992 RMK A01 T03550187  RH  037%=      5-min Rain = 0
KAHS 181813Z 19010KT 36/19 A2992 RMK A01 T03560190  RH  038%=      5-min Rain = 0
KAHS 181814Z 19011KT 36/19 A2992 RMK A01 T03570191  RH  038%=      5-min Rain = 0
KAHS 181815Z 20010KT 36/19 A2992 RMK A01 T03590192  RH  038%=      5-min Rain = 0
KAHS 181816Z 21012KT 36/19 A2992 RMK A01 T03610186  RH  036%=      5-min Rain = 0
KAHS 181817Z 22010KT 36/18 A2992 RMK A01 T03600183  RH  035%=      5-min Rain = 0
KAHS 181818Z 22010KT 36/18 A2992 RMK A01 T03570184  RH  036%=      5-min Rain = 0
KAHS 181819Z 20016KT 36/19 A2992 RMK A01 T03590185  RH  036%=      5-min Rain = 0
KAHS 181820Z 20013KT 35/18 A2992 RMK A01 T03540184  RH  037%=      5-min Rain = 0
KAHS 181821Z 19013KT 35/19 A2992 RMK A01 T03540186  RH  037%=      5-min Rain = 0
KAHS 181822Z 19014KT 35/19 A2992 RMK A01 T03520185  RH  038%=      5-min Rain = 0
KAHS 181823Z 18010KT 35/19 A2992 RMK A01 T03530188  RH  038%=      5-min Rain = 0
KAHS 181824Z 20013KT 36/19 A2992 RMK A01 T03560187  RH  037%=      5-min Rain = 0
KAHS 181825Z 20013KT 35/19 A2992 RMK A01 T03540186  RH  037%=      5-min Rain = 0
KAHS 181826Z 21013KT 35/19 A2992 RMK A01 T03540186  RH  037%=      5-min Rain = 0
KAHS 181827Z 19012KT 35/19 A2992 RMK A01 T03540187  RH  038%=      5-min Rain = 0
KAHS 181828Z 17009G21KT 36/19 A2991 RMK A01 T03550188  RH  037%=      5-min Rain = 0
KAHS 181829Z 22016G26KT 36/18 A2991 RMK A01 T03590184  RH  036%=      5-min Rain = 0
KAHS 181830Z 22013KT 36/18 A2992 RMK A01 T03600178  RH  034%=      5-min Rain = 0
KAHS 181831Z 22011KT 36/18 A2992 RMK A01 T03610178  RH  034%=      5-min Rain = 0
KAHS 181832Z 21011KT 36/18 A2992 RMK A01 T03620180  RH  034%=      5-min Rain = 0
KAHS 181833Z 19013KT 36/18 A2992 RMK A01 T03620181  RH  035%=      5-min Rain = 0
KAHS 181834Z 19012KT 36/18 A2992 RMK A01 T03630181  RH  034%=      5-min Rain = 0
KAHS 181835Z 21012KT 36/18 A2992 RMK A01 T03610181  RH  035%=      5-min Rain = 0
KAHS 181836Z 20010KT 36/19 A2991 RMK A01 T03610185  RH  036%=      5-min Rain = 0
KAHS 181837Z 18011KT 36/19 A2991 RMK A01 T03600186  RH  036%=      5-min Rain = 0
KAHS 181838Z 18012KT 36/19 A2991 RMK A01 T03640187  RH  035%=      5-min Rain = 0
KAHS 181839Z 19013KT 36/18 A2991 RMK A01 T03630184  RH  035%=      5-min Rain = 0
KAHS 181840Z 20014KT 36/18 A2991 RMK A01 T03620182  RH  035%=      5-min Rain = 0
KAHS 181841Z 21014KT 36/18 A2991 RMK A01 T03610178  RH  034%=      5-min Rain = 0
KAHS 181842Z 21013KT 36/18 A2991 RMK A01 T03610177  RH  034%=      5-min Rain = 0
KAHS 181843Z 21009KT 36/18 A2991 RMK A01 T03620181  RH  034%=      5-min Rain = 0
KAHS 181844Z 19010KT 37/18 A2991 RMK A01 T03680182  RH  034%=      5-min Rain = 0
KAHS 181845Z 19011KT 37/18 A2991 RMK A01 T03670183  RH  034%=      5-min Rain = 0
KAHS 181846Z 21008KT 36/18 A2991 RMK A01 T03640183  RH  035%=      5-min Rain = 0
KAHS 181847Z 19009KT 37/19 A2991 RMK A01 T03650185  RH  035%=      5-min Rain = 0
KAHS 181848Z 20014G19KT 37/19 A2991 RMK A01 T03670186  RH  035%=      5-min Rain = 0
KAHS 181849Z 20009KT 37/18 A2991 RMK A01 T03650184  RH  035%=      5-min Rain = 0
KAHS 181850Z 17011G17KT 37/19 A2991 RMK A01 T03670186  RH  035%=      5-min Rain = 0
KAHS 181851Z 17016G23KT 37/18 A2991 RMK A01 T03670184  RH  034%=      5-min Rain = 0
KAHS 181852Z 19015KT 37/18 A2991 RMK A01 T03670184  RH  034%=      5-min Rain = 0
KAHS 181853Z 20014KT 37/18 A2991 RMK A01 T03660183  RH  034%=      5-min Rain = 0
KAHS 181854Z 19014G19KT 36/18 A2991 RMK A01 T03640183  RH  035%=      5-min Rain = 0
KAHS 181855Z 19011KT 37/18 A2991 RMK A01 T03670183  RH  034%=      5-min Rain = 0
KAHS 181856Z 18014KT 37/18 A2991 RMK A01 T03690181  RH  033%=      5-min Rain = 0
KAHS 181857Z 18014KT 37/18 A2991 RMK A01 T03650180  RH  034%=      5-min Rain = 0
KAHS 181858Z 16014KT 37/18 A2991 RMK A01 T03670181  RH  034%=      5-min Rain = 0
KAHS 181859Z 18014KT 37/18 A2991 RMK A01 T03670179  RH  033%=      5-min Rain = 0
KAHS 181900Z 19015KT 37/18 A2991 RMK A01 T03660179  RH  033%=      5-min Rain = 0
KAHS 181901Z 19013KT 36/18 A2991 RMK A01 T03620178  RH  034%=      5-min Rain = 0
KAHS 181902Z 17011KT 36/18 A2991 RMK A01 T03610179  RH  034%=      5-min Rain = 0
KAHS 181903Z 17011KT 36/18 A2991 RMK A01 T03630181  RH  034%=      5-min Rain = 0
KAHS 181904Z 17012KT 37/18 A2991 RMK A01 T03650181  RH  034%=      5-min Rain = 0
KAHS 181905Z 17017KT 37/18 A2991 RMK A01 T03660181  RH  034%=      5-min Rain = 0
KAHS 181906Z 18017KT 37/18 A2991 RMK A01 T03660183  RH  034%=      5-min Rain = 0
KAHS 181907Z 19013G19KT 37/18 A2991 RMK A01 T03650181  RH  034%=      5-min Rain = 0
KAHS 181908Z 20014G19KT 37/18 A2991 RMK A01 T03650181  RH  034%=      5-min Rain = 0
KAHS 181909Z 19013KT 37/18 A2991 RMK A01 T03650182  RH  034%=      5-min Rain = 0
KAHS 181910Z 19016KT 37/18 A2991 RMK A01 T03660181  RH  034%=      5-min Rain = 0
KAHS 181911Z 18016KT 37/18 A2991 RMK A01 T03650180  RH  034%=      5-min Rain = 0
KAHS 181912Z 19015KT 36/18 A299 RMK A01 T03640179  RH  034%=      5-min Rain = 0
KAHS 181913Z 19012KT 37/18 A299 RMK A01 T03660180  RH  034%=      5-min Rain = 0
KAHS 181914Z 19013KT 37/18 A299 RMK A01 T03690180  RH  033%=      5-min Rain = 0
KAHS 181915Z 19016G22KT 37/18 A299 RMK A01 T03670178  RH  033%=      5-min Rain = 0
KAHS 181916Z 19014KT 37/18 A299 RMK A01 T03650177  RH  033%=      5-min Rain = 0
KAHS 181917Z 18012KT 37/18 A299 RMK A01 T03680179  RH  033%=      5-min Rain = 0
KAHS 181918Z 18011KT 37/18 A299 RMK A01 T03680176  RH  032%=      5-min Rain = 0
KAHS 181919Z 19016G21KT 37/18 A299 RMK A01 T03680175  RH  032%=      5-min Rain = 0
KAHS 181920Z 19012KT 37/18 A299 RMK A01 T03660175  RH  033%=      5-min Rain = 0
KAHS 181921Z 19011KT 37/18 A299 RMK A01 T03670175  RH  032%=      5-min Rain = 0
KAHS 181922Z 18015KT 37/17 A299 RMK A01 T03660174  RH  032%=      5-min Rain = 0
KAHS 181923Z 18016KT 37/17 A299 RMK A01 T03670174  RH  032%=      5-min Rain = 0
KAHS 181924Z 19012KT 37/17 A299 RMK A01 T03670172  RH  032%=      5-min Rain = 0
KAHS 181925Z 20009KT 37/17 A299 RMK A01 T03670173  RH  032%=      5-min Rain = 0
KAHS 181926Z 19010KT 37/17 A299 RMK A01 T03690174  RH  032%=      5-min Rain = 0
KAHS 181927Z 19011KT 37/18 A299 RMK A01 T03730176  RH  032%=      5-min Rain = 0
KAHS 181928Z 18010G15KT 38/18 A299 RMK A01 T03770177  RH  031%=      5-min Rain = 0
KAHS 181929Z 19012KT 38/17 A299 RMK A01 T03790173  RH  030%=      5-min Rain = 0
KAHS 181930Z 18009KT 38/17 A299 RMK A01 T03760171  RH  030%=      5-min Rain = 0
KAHS 181931Z 16013KT 38/17 A299 RMK A01 T03760170  RH  030%=      5-min Rain = 0
KAHS 181932Z 17011KT 37/17 A299 RMK A01 T03740169  RH  030%=      5-min Rain = 0
KAHS 181933Z 19014G19KT 37/17 A299 RMK A01 T03740172  RH  031%=      5-min Rain = 0
KAHS 181934Z 19012KT 37/17 A299 RMK A01 T03720173  RH  031%=      5-min Rain = 0
KAHS 181935Z 18010G15KT 37/18 A299 RMK A01 T03720176  RH  032%=      5-min Rain = 0
KAHS 181936Z 19013KT 37/17 A299 RMK A01 T03720172  RH  031%=      5-min Rain = 0
KAHS 181937Z 17012KT 37/17 A299 RMK A01 T03700172  RH  031%=      5-min Rain = 0
KAHS 181938Z 17013G18KT 37/17 A299 RMK A01 T03710170  RH  031%=      5-min Rain = 0
KAHS 181939Z 18013KT 37/17 A299 RMK A01 T03710169  RH  030%=      5-min Rain = 0
KAHS 181940Z 16015KT 37/17 A299 RMK A01 T03700167  RH  030%=      5-min Rain = 0
KAHS 181941Z 16011KT 37/17 A299 RMK A01 T03700168  RH  031%=      5-min Rain = 0
KAHS 181942Z 15009KT 37/17 A299 RMK A01 T03710171  RH  031%=      5-min Rain = 0
KAHS 181943Z 16010KT 37/17 A299 RMK A01 T03740174  RH  031%=      5-min Rain = 0
KAHS 181944Z 17010G15KT 38/18 A299 RMK A01 T03760175  RH  031%=      5-min Rain = 0
KAHS 181945Z 19008KT 38/18 A299 RMK A01 T03810177  RH  030%=      5-min Rain = 0
KAHS 181946Z 20012G17KT 38/17 A299 RMK A01 T03820174  RH  030%=      5-min Rain = 0
KAHS 181947Z 20015KT 38/17 A299 RMK A01 T03810169  RH  029%=      5-min Rain = 0
KAHS 181948Z 18013KT 38/17 A299 RMK A01 T03800168  RH  029%=      5-min Rain = 0
KAHS 181949Z 20010KT 38/17 A299 RMK A01 T03790168  RH  029%=      5-min Rain = 0
KAHS 181950Z 21010KT 38/17 A299 RMK A01 T03790165  RH  028%=      5-min Rain = 0
KAHS 181951Z 20009G14KT 38/16 A299 RMK A01 T03770163  RH  028%=      5-min Rain = 0
KAHS 181952Z 18011KT 38/17 A2989 RMK A01 T03760168  RH  029%=      5-min Rain = 0
KAHS 181953Z 15011KT 38/17 A2989 RMK A01 T03800174  RH  030%=      5-min Rain = 0
KAHS 181954Z 18009KT 38/18 A2989 RMK A01 T03810177  RH  030%=      5-min Rain = 0
KAHS 181955Z 17011KT 38/18 A299 RMK A01 T03800177  RH  030%=      5-min Rain = 0
KAHS 181956Z 16014KT 38/18 A2989 RMK A01 T03790178  RH  031%=      5-min Rain = 0
KAHS 181957Z 18012G19KT 38/18 A2989 RMK A01 T03790181  RH  031%=      5-min Rain = 0
KAHS 181958Z 18015G20KT 38/18 A2989 RMK A01 T03780180  RH  031%=      5-min Rain = 0
KAHS 181959Z 18018KT 38/18 A2989 RMK A01 T03770179  RH  032%=      5-min Rain = 0
KAHS 182000Z 19013G18KT 38/18 A2989 RMK A01 T03760176  RH  031%=      5-min Rain = 0
KAHS 182001Z 20011KT 38/17 A2989 RMK A01 T03770173  RH  030%=      5-min Rain = 0
KAHS 182002Z 20010KT 38/17 A2989 RMK A01 T03790173  RH  030%=      5-min Rain = 0
KAHS 182003Z 19010KT 38/17 A2989 RMK A01 T03780169  RH  029%=      5-min Rain = 0
KAHS 182004Z 19012KT 38/17 A2989 RMK A01 T03760172  RH  030%=      5-min Rain = 0
KAHS 182005Z 16016KT 38/18 A2989 RMK A01 T03780175  RH  030%=      5-min Rain = 0
KAHS 182006Z 16014KT 38/17 A2989 RMK A01 T03780171  RH  030%=      5-min Rain = 0
KAHS 182007Z 17013KT 38/17 A2989 RMK A01 T03760173  RH  030%=      5-min Rain = 0
KAHS 182008Z 18017KT 38/17 A2989 RMK A01 T03770173  RH  030%=      5-min Rain = 0
KAHS 182009Z 18013KT 38/17 A2989 RMK A01 T03770174  RH  030%=      5-min Rain = 0
KAHS 182010Z 17015KT 38/17 A2989 RMK A01 T03810173  RH  030%=      5-min Rain = 0
KAHS 182011Z 17014KT 38/17 A2989 RMK A01 T03780170  RH  029%=      5-min Rain = 0
KAHS 182012Z 18010KT 38/17 A2989 RMK A01 T03750170  RH  030%=      5-min Rain = 0
KAHS 182013Z 18008KT 38/17 A2989 RMK A01 T03760173  RH  030%=      5-min Rain = 0
KAHS 182014Z 18014G20KT 38/17 A2989 RMK A01 T03780172  RH  030%=      5-min Rain = 0
KAHS 182015Z 19014KT 38/17 A2989 RMK A01 T03800172  RH  030%=      5-min Rain = 0
KAHS 182016Z 18013G18KT 38/17 A2989 RMK A01 T03800171  RH  030%=      5-min Rain = 0
KAHS 182017Z 19013KT 38/17 A2989 RMK A01 T03780169  RH  029%=      5-min Rain = 0
KAHS 182018Z 19009KT 38/17 A2989 RMK A01 T03760170  RH  030%=      5-min Rain = 0
KAHS 182019Z 17013KT 38/17 A2989 RMK A01 T03790171  RH  030%=      5-min Rain = 0
KAHS 182020Z 17013KT 38/17 A2989 RMK A01 T03780168  RH  029%=      5-min Rain = 0
KAHS 182021Z 17010KT 38/17 A2989 RMK A01 T03800170  RH  029%=      5-min Rain = 0
KAHS 182022Z 17013KT 38/17 A2989 RMK A01 T03810171  RH  029%=      5-min Rain = 0
KAHS 182023Z 16012KT 38/17 A2989 RMK A01 T03800172  RH  030%=      5-min Rain = 0
KAHS 182024Z 17018G24KT 38/17 A2988 RMK A01 T03780171  RH  030%=      5-min Rain = 0
KAHS 182025Z 20019KT 38/17 A2989 RMK A01 T03750168  RH  030%=      5-min Rain = 0
KAHS 182026Z 19017KT 37/17 A2989 RMK A01 T03730166  RH  030%=      5-min Rain = 0
KAHS 182027Z 18014KT 37/17 A2989 RMK A01 T03730167  RH  030%=      5-min Rain = 0
KAHS 182028Z 18014KT 38/17 A2989 RMK A01 T03750167  RH  029%=      5-min Rain = 0
KAHS 182029Z 17011KT 38/17 A2989 RMK A01 T03760167  RH  029%=      5-min Rain = 0
KAHS 182030Z 17012KT 38/16 A2989 RMK A01 T03770164  RH  029%=      5-min Rain = 0
KAHS 182031Z 18012KT 38/16 A2989 RMK A01 T03760163  RH  029%=      5-min Rain = 0
KAHS 182032Z 20009KT 38/17 A2989 RMK A01 T03760165  RH  029%=      5-min Rain = 0
KAHS 182033Z 18011KT 38/17 A2989 RMK A01 T03780168  RH  029%=      5-min Rain = 0
KAHS 182034Z 18012G17KT 38/17 A2989 RMK A01 T03790169  RH  029%=      5-min Rain = 0
KAHS 182035Z 18011KT 38/17 A2989 RMK A01 T03760171  RH  030%=      5-min Rain = 0
KAHS 182036Z 15010KT 38/17 A2988 RMK A01 T03750174  RH  031%=      5-min Rain = 0
KAHS 182037Z 17010G16KT 38/18 A2988 RMK A01 T03760176  RH  031%=      5-min Rain = 0
KAHS 182038Z 18015KT 38/18 A2988 RMK A01 T03780175  RH  030%=      5-min Rain = 0
KAHS 182039Z 18011KT 38/17 A2988 RMK A01 T03790174  RH  030%=      5-min Rain = 0
KAHS 182040Z 17011KT 38/17 A2988 RMK A01 T03810171  RH  029%=      5-min Rain = 0
KAHS 182041Z 15012G17KT 38/17 A2988 RMK A01 T03790171  RH  029%=      5-min Rain = 0
KAHS 182042Z 17018KT 38/17 A2988 RMK A01 T03810168  RH  029%=      5-min Rain = 0
KAHS 182043Z 19015KT 38/17 A2988 RMK A01 T03820171  RH  029%=      5-min Rain = 0
KAHS 182044Z 19018G23KT 38/17 A2988 RMK A01 T03820171  RH  029%=      5-min Rain = 0
KAHS 182045Z 19014KT 38/17 A2988 RMK A01 T03810172  RH  029%=      5-min Rain = 0
KAHS 182046Z 20015KT 38/17 A2988 RMK A01 T03810170  RH  029%=      5-min Rain = 0
KAHS 182047Z 19011KT 38/17 A2988 RMK A01 T03790169  RH  029%=      5-min Rain = 0
KAHS 182048Z 18011KT 38/17 A2988 RMK A01 T03790171  RH  029%=      5-min Rain = 0
KAHS 182049Z 17011KT 38/17 A2988 RMK A01 T03780168  RH  029%=      5-min Rain = 0
KAHS 182050Z 18011KT 38/17 A2988 RMK A01 T03790171  RH  030%=      5-min Rain = 0
KAHS 182051Z 19015G20KT 38/17 A2988 RMK A01 T03800169  RH  029%=      5-min Rain = 0
KAHS 182052Z 17017KT 38/17 A2988 RMK A01 T03800167  RH  029%=      5-min Rain = 0
KAHS 182053Z 18011G16KT 38/17 A2988 RMK A01 T03790167  RH  029%=      5-min Rain = 0
KAHS 182054Z 17012KT 38/17 A2988 RMK A01 T03830171  RH  029%=      5-min Rain = 0
KAHS 182055Z 17011KT 38/17 A2988 RMK A01 T03810170  RH  029%=      5-min Rain = 0
KAHS 182056Z 17010KT 38/17 A2988 RMK A01 T03790172  RH  030%=      5-min Rain = 0
KAHS 182057Z 18008G16KT 38/17 A2988 RMK A01 T03770174  RH  031%=      5-min Rain = 0
KAHS 182058Z 19015KT 37/17 A2988 RMK A01 T03740172  RH  031%=      5-min Rain = 0
KAHS 182059Z 18012KT 37/17 A2988 RMK A01 T03710172  RH  031%=      5-min Rain = 0
KAHS 182100Z 17013KT 38/17 A2988 RMK A01 T03750174  RH  031%=      5-min Rain = 0
KAHS 182101Z 19013G18KT 38/17 A2988 RMK A01 T03780171  RH  030%=      5-min Rain = 0
KAHS 182102Z 19012KT 38/17 A2988 RMK A01 T03770174  RH  030%=      5-min Rain = 0
KAHS 182103Z 18013KT 38/17 A2988 RMK A01 T03810174  RH  030%=      5-min Rain = 0
KAHS 182104Z 17012KT 38/17 A2988 RMK A01 T03790170  RH  029%=      5-min Rain = 0
KAHS 182105Z 19009KT 38/17 A2988 RMK A01 T03780170  RH  030%=      5-min Rain = 0
KAHS 182106Z 18012KT 38/17 A2987 RMK A01 T03810173  RH  030%=      5-min Rain = 0
KAHS 182107Z 20014KT 38/17 A2987 RMK A01 T03820170  RH  029%=      5-min Rain = 0
KAHS 182108Z 20016KT 38/17 A2987 RMK A01 T03820167  RH  028%=      5-min Rain = 0
KAHS 182109Z 20015KT 38/17 A2987 RMK A01 T03820166  RH  028%=      5-min Rain = 0
KAHS 182110Z 19014KT 38/17 A2987 RMK A01 T03810167  RH  028%=      5-min Rain = 0
KAHS 182111Z 20015KT 38/17 A2987 RMK A01 T03820167  RH  028%=      5-min Rain = 0
KAHS 182112Z 20012G17KT 38/17 A2987 RMK A01 T03800166  RH  029%=      5-min Rain = 0
KAHS 182113Z 19007KT 38/17 A2987 RMK A01 T03800170  RH  029%=      5-min Rain = 0
KAHS 182114Z 18009KT 39/17 A2987 RMK A01 T03850170  RH  028%=      5-min Rain = 0
KAHS 182115Z 17010KT 38/17 A2987 RMK A01 T03830166  RH  028%=      5-min Rain = 0
KAHS 182116Z 18007KT 38/17 A2987 RMK A01 T03820166  RH  028%=      5-min Rain = 0
KAHS 182117Z 17013G18KT 38/17 A2987 RMK A01 T03830169  RH  028%=      5-min Rain = 0
KAHS 182118Z 18014KT 39/17 A2987 RMK A01 T03850171  RH  029%=      5-min Rain = 0
KAHS 182119Z 17014KT 38/17 A2987 RMK A01 T03840169  RH  028%=      5-min Rain = 0
KAHS 182120Z 19010KT 38/17 A2987 RMK A01 T03820169  RH  029%=      5-min Rain = 0
KAHS 182121Z 18011KT 38/17 A2987 RMK A01 T03800168  RH  029%=      5-min Rain = 0
KAHS 182122Z 19013KT 38/17 A2987 RMK A01 T03780170  RH  029%=      5-min Rain = 0
KAHS 182123Z 17014G19KT 38/17 A2987 RMK A01 T03790171  RH  030%=      5-min Rain = 0
KAHS 182124Z 17015KT 38/17 A2987 RMK A01 T03810170  RH  029%=      5-min Rain = 0
KAHS 182125Z 18014KT 38/17 A2987 RMK A01 T03840169  RH  029%=      5-min Rain = 0
KAHS 182126Z 21011KT 39/17 A2987 RMK A01 T03850169  RH  028%=      5-min Rain = 0
KAHS 182127Z 19011KT 39/17 A2987 RMK A01 T03870167  RH  028%=      5-min Rain = 0
KAHS 182128Z 18014KT 39/17 A2987 RMK A01 T03850168  RH  028%=      5-min Rain = 0
KAHS 182129Z 19013KT 38/17 A2987 RMK A01 T03840167  RH  028%=      5-min Rain = 0
KAHS 182130Z 19011KT 38/17 A2987 RMK A01 T03810166  RH  028%=      5-min Rain = 0
KAHS 182131Z 17009KT 38/17 A2987 RMK A01 T03830167  RH  028%=      5-min Rain = 0
KAHS 182132Z 18009KT 38/17 A2986 RMK A01 T03820165  RH  028%=      5-min Rain = 0
KAHS 182133Z 19008KT 38/17 A2986 RMK A01 T03780165  RH  029%=      5-min Rain = 0
KAHS 182134Z 17012G17KT 38/17 A2986 RMK A01 T03760167  RH  029%=      5-min Rain = 0
KAHS 182135Z 19014KT 38/17 A2986 RMK A01 T03770168  RH  029%=      5-min Rain = 0
KAHS 182136Z 19008KT 38/17 A2986 RMK A01 T03780166  RH  029%=      5-min Rain = 0
KAHS 182137Z 18010KT 38/17 A2986 RMK A01 T03770165  RH  029%=      5-min Rain = 0
KAHS 182138Z 17009KT 37/16 A2986 RMK A01 T03740164  RH  029%=      5-min Rain = 0
KAHS 182139Z 18011KT 37/17 A2986 RMK A01 T03720165  RH  029%=      5-min Rain = 0
KAHS 182140Z 17012KT 37/17 A2986 RMK A01 T03740165  RH  029%=      5-min Rain = 0
KAHS 182141Z 17011KT 38/16 A2986 RMK A01 T03780164  RH  029%=      5-min Rain = 0
KAHS 182142Z 20011G17KT 38/17 A2986 RMK A01 T03840168  RH  028%=      5-min Rain = 0
KAHS 182143Z 20014KT 39/17 A2986 RMK A01 T03860167  RH  028%=      5-min Rain = 0
KAHS 182144Z 19014KT 38/17 A2986 RMK A01 T03830166  RH  028%=      5-min Rain = 0
KAHS 182145Z 20014KT 38/17 A2986 RMK A01 T03810166  RH  028%=      5-min Rain = 0
KAHS 182146Z 19013KT 38/17 A2986 RMK A01 T03810167  RH  029%=      5-min Rain = 0
KAHS 182147Z 18011KT 38/17 A2986 RMK A01 T03830168  RH  028%=      5-min Rain = 0
KAHS 182148Z 17008G14KT 38/17 A2986 RMK A01 T03840165  RH  028%=      5-min Rain = 0
KAHS 182149Z 16009KT 38/17 A2986 RMK A01 T03830165  RH  028%=      5-min Rain = 0
KAHS 182150Z 17007KT 38/16 A2986 RMK A01 T03820163  RH  028%=      5-min Rain = 0
KAHS 182151Z 17011KT 38/17 A2986 RMK A01 T03820166  RH  028%=      5-min Rain = 0
KAHS 182152Z 17012KT 38/16 A2986 RMK A01 T03820164  RH  028%=      5-min Rain = 0
KAHS 182153Z 18011KT 39/17 A2986 RMK A01 T03850167  RH  028%=      5-min Rain = 0
KAHS 182154Z 19015G21KT 39/17 A2986 RMK A01 T03880167  RH  027%=      5-min Rain = 0
KAHS 182155Z 19013KT 38/16 A2986 RMK A01 T03840163  RH  027%=      5-min Rain = 0
KAHS 182156Z 19012KT 38/16 A2986 RMK A01 T03830164  RH  028%=      5-min Rain = 0
KAHS 182157Z 19011KT 38/17 A2986 RMK A01 T03840165  RH  028%=      5-min Rain = 0
KAHS 182158Z 19013KT 38/16 A2985 RMK A01 T03840163  RH  027%=      5-min Rain = 0
KAHS 182159Z 18013KT 38/17 A2985 RMK A01 T03840165  RH  028%=      5-min Rain = 0
KAHS 182200Z 17014KT 38/16 A2985 RMK A01 T03840163  RH  027%=      5-min Rain = 0
KAHS 182201Z 17017KT 38/16 A2985 RMK A01 T03820162  RH  027%=      5-min Rain = 0
KAHS 182202Z 19017KT 38/16 A2985 RMK A01 T03830164  RH  028%=      5-min Rain = 0
KAHS 182203Z 18014KT 38/17 A2985 RMK A01 T03840166  RH  028%=      5-min Rain = 0
KAHS 182204Z 19014KT 39/17 A2985 RMK A01 T03860166  RH  028%=      5-min Rain = 0
KAHS 182205Z 20009KT 39/17 A2985 RMK A01 T03880167  RH  027%=      5-min Rain = 0
KAHS 182206Z 19011KT 39/16 A2985 RMK A01 T03850163  RH  027%=      5-min Rain = 0
KAHS 182207Z 20012KT 38/16 A2985 RMK A01 T03840163  RH  027%=      5-min Rain = 0
KAHS 182208Z 21007KT 38/16 A2985 RMK A01 T03810160  RH  027%=      5-min Rain = 0
KAHS 182209Z 20010KT 38/16 A2985 RMK A01 T03810163  RH  028%=      5-min Rain = 0
KAHS 182210Z 18013KT 38/17 A2985 RMK A01 T03830165  RH  028%=      5-min Rain = 0
KAHS 182211Z 19013KT 38/16 A2985 RMK A01 T03840163  RH  027%=      5-min Rain = 0
KAHS 182212Z 19013KT 38/16 A2985 RMK A01 T03840163  RH  027%=      5-min Rain = 0
KAHS 182213Z 19013KT 38/16 A2985 RMK A01 T03810163  RH  028%=      5-min Rain = 0
KAHS 182214Z 19011KT 38/16 A2985 RMK A01 T03820163  RH  028%=      5-min Rain = 0
KAHS 182215Z 19008KT 38/16 A2985 RMK A01 T03820163  RH  028%=      5-min Rain = 0
KAHS 182216Z 19012KT 38/16 A2985 RMK A01 T03830164  RH  028%=      5-min Rain = 0
KAHS 182217Z 19014KT 38/16 A2985 RMK A01 T03820163  RH  028%=      5-min Rain = 0
KAHS 182218Z 18014KT 38/16 A2985 RMK A01 T03830164  RH  028%=      5-min Rain = 0
KAHS 182219Z 18013KT 38/16 A2985 RMK A01 T03840162  RH  027%=      5-min Rain = 0
KAHS 182220Z 17014KT 39/16 A2985 RMK A01 T03850160  RH  027%=      5-min Rain = 0
KAHS 182221Z 18013KT 38/16 A2985 RMK A01 T03840160  RH  027%=      5-min Rain = 0
KAHS 182222Z 18012KT 39/16 A2985 RMK A01 T03850164  RH  027%=      5-min Rain = 0
KAHS 182223Z 18010KT 38/16 A2985 RMK A01 T03840162  RH  027%=      5-min Rain = 0
KAHS 182224Z 19012KT 38/16 A2985 RMK A01 T03840164  RH  027%=      5-min Rain = 0
KAHS 182225Z 17012KT 38/17 A2985 RMK A01 T03840165  RH  028%=      5-min Rain = 0
KAHS 182226Z 17012KT 39/17 A2985 RMK A01 T03860165  RH  027%=      5-min Rain = 0
KAHS 182227Z 16015KT 39/16 A2985 RMK A01 T03870164  RH  027%=      5-min Rain = 0
KAHS 182228Z 15011KT 39/16 A2985 RMK A01 T03880163  RH  027%=      5-min Rain = 0
KAHS 182229Z 16009KT 39/16 A2984 RMK A01 T03870162  RH  027%=      5-min Rain = 0
KAHS 182230Z 18009KT 39/17 A2984 RMK A01 T03870165  RH  027%=      5-min Rain = 0
KAHS 182231Z 18011KT 39/17 A2984 RMK A01 T03900167  RH  027%=      5-min Rain = 0
KAHS 182232Z 19017KT 39/16 A2984 RMK A01 T03890162  RH  026%=      5-min Rain = 0
KAHS 182233Z 19015KT 38/16 A2984 RMK A01 T03810160  RH  027%=      5-min Rain = 0
KAHS 182234Z 20015KT 38/16 A2984 RMK A01 T03760160  RH  028%=      5-min Rain = 0
KAHS 182235Z 20012KT 38/16 A2984 RMK A01 T03750160  RH  028%=      5-min Rain = 0
KAHS 182236Z 20010KT 38/16 A2984 RMK A01 T03790161  RH  028%=      5-min Rain = 0
KAHS 182237Z 18009KT 38/16 A2984 RMK A01 T03830164  RH  028%=      5-min Rain = 0
KAHS 182238Z 17011KT 39/16 A2984 RMK A01 T03880163  RH  027%=      5-min Rain = 0
KAHS 182239Z 18012KT 39/16 A2984 RMK A01 T03880159  RH  026%=      5-min Rain = 0
KAHS 182240Z 18011KT 39/16 A2984 RMK A01 T03850159  RH  026%=      5-min Rain = 0
KAHS 182241Z 18012KT 38/16 A2984 RMK A01 T03820158  RH  027%=      5-min Rain = 0
KAHS 182242Z 17015KT 38/16 A2984 RMK A01 T03790158  RH  027%=      5-min Rain = 0
KAHS 182243Z 17015KT 38/16 A2984 RMK A01 T03780159  RH  028%=      5-min Rain = 0
KAHS 182244Z 17012G17KT 38/16 A2984 RMK A01 T03800160  RH  027%=      5-min Rain = 0
KAHS 182245Z 16015KT 38/16 A2984 RMK A01 T03800159  RH  027%=      5-min Rain = 0
KAHS 182246Z 17012KT 38/16 A2984 RMK A01 T03780158  RH  027%=      5-min Rain = 0
KAHS 182247Z 18010KT 38/16 A2984 RMK A01 T03810161  RH  027%=      5-min Rain = 0
KAHS 182248Z 17012KT 38/16 A2983 RMK A01 T03830162  RH  027%=      5-min Rain = 0
KAHS 182249Z 18015KT 39/16 A2984 RMK A01 T03850163  RH  027%=      5-min Rain = 0
KAHS 182250Z 18012KT 38/16 A2984 RMK A01 T03840163  RH  027%=      5-min Rain = 0
KAHS 182251Z 17014KT 38/16 A2984 RMK A01 T03840164  RH  028%=      5-min Rain = 0
KAHS 182252Z 17018KT 39/16 A2984 RMK A01 T03850163  RH  027%=      5-min Rain = 0
KAHS 182253Z 18018KT 38/16 A2984 RMK A01 T03830162  RH  027%=      5-min Rain = 0
KAHS 182254Z 18016G21KT 38/16 A2983 RMK A01 T03810160  RH  027%=      5-min Rain = 0
KAHS 182255Z 18014KT 38/16 A2984 RMK A01 T03810161  RH  027%=      5-min Rain = 0
KAHS 182256Z 19014G19KT 38/16 A2983 RMK A01 T03820158  RH  027%=      5-min Rain = 0
KAHS 182257Z 18011KT 38/16 A2984 RMK A01 T03820158  RH  027%=      5-min Rain = 0
KAHS 182258Z 18016KT 38/16 A2984 RMK A01 T03830159  RH  027%=      5-min Rain = 0
KAHS 182259Z 17013KT 38/16 A2983 RMK A01 T03820158  RH  027%=      5-min Rain = 0
KAHS 182300Z 18013KT 38/16 A2983 RMK A01 T03820159  RH  027%=      5-min Rain = 0
KAHS 182301Z 17014KT 38/16 A2983 RMK A01 T03830157  RH  026%=      5-min Rain = 0
KAHS 182302Z 18011KT 38/16 A2983 RMK A01 T03820156  RH  026%=      5-min Rain = 0
KAHS 182303Z 18012KT 38/16 A2983 RMK A01 T03830157  RH  027%=      5-min Rain = 0
KAHS 182304Z 17014KT 38/16 A2983 RMK A01 T03830158  RH  027%=      5-min Rain = 0
KAHS 182305Z 20011KT 38/16 A2983 RMK A01 T03830158  RH  027%=      5-min Rain = 0
KAHS 182306Z 20011KT 38/16 A2983 RMK A01 T03810158  RH  027%=      5-min Rain = 0
KAHS 182307Z 17011G17KT 38/16 A2983 RMK A01 T03820161  RH  027%=      5-min Rain = 0
KAHS 182308Z 17015KT 38/16 A2983 RMK A01 T03820161  RH  027%=      5-min Rain = 0
KAHS 182309Z 17015KT 38/16 A2983 RMK A01 T03820162  RH  027%=      5-min Rain = 0
KAHS 182310Z 17015G20KT 38/16 A2983 RMK A01 T03810160  RH  027%=      5-min Rain = 0
KAHS 182311Z 18017KT 38/16 A2983 RMK A01 T03800161  RH  028%=      5-min Rain = 0
KAHS 182312Z 19015KT 38/16 A2983 RMK A01 T03780161  RH  028%=      5-min Rain = 0
KAHS 182313Z 18013KT 38/16 A2983 RMK A01 T03770162  RH  028%=      5-min Rain = 0
KAHS 182314Z 18015KT 38/16 A2983 RMK A01 T03780163  RH  028%=      5-min Rain = 0
KAHS 182315Z 18014KT 38/16 A2983 RMK A01 T03790164  RH  028%=      5-min Rain = 0
KAHS 182316Z 18014KT 38/16 A2983 RMK A01 T03790164  RH  028%=      5-min Rain = 0
KAHS 182317Z 19012G17KT 38/16 A2983 RMK A01 T03790164  RH  028%=      5-min Rain = 0
KAHS 182318Z 18013KT 38/16 A2982 RMK A01 T03790163  RH  028%=      5-min Rain = 0
KAHS 182319Z 16013KT 38/16 A2982 RMK A01 T03800162  RH  028%=      5-min Rain = 0
KAHS 182320Z 18010G17KT 38/16 A2982 RMK A01 T03820161  RH  027%=      5-min Rain = 0
KAHS 182321Z 18013KT 38/16 A2982 RMK A01 T03830161  RH  027%=      5-min Rain = 0
KAHS 182322Z 19014G21KT 38/16 A2982 RMK A01 T03830161  RH  027%=      5-min Rain = 0
KAHS 182323Z 19013G18KT 38/16 A2982 RMK A01 T03810163  RH  028%=      5-min Rain = 0
KAHS 182324Z 18013KT 38/16 A2982 RMK A01 T03810164  RH  028%=      5-min Rain = 0
KAHS 182325Z 17012G17KT 38/16 A2983 RMK A01 T03810164  RH  028%=      5-min Rain = 0
KAHS 182326Z 18013KT 38/16 A2982 RMK A01 T03800161  RH  028%=      5-min Rain = 0
KAHS 182327Z 18012KT 38/16 A2982 RMK A01 T03790162  RH  028%=      5-min Rain = 0
KAHS 182328Z 16011G16KT 38/17 A2982 RMK A01 T03790165  RH  028%=      5-min Rain = 0
KAHS 182329Z 17011KT 38/16 A2982 RMK A01 T03790164  RH  028%=      5-min Rain = 0
KAHS 182330Z 16012KT 38/17 A2982 RMK A01 T03800166  RH  028%=      5-min Rain = 0
KAHS 182331Z 17013KT 38/16 A2982 RMK A01 T03810163  RH  028%=      5-min Rain = 0
KAHS 182332Z 18011KT 38/17 A2982 RMK A01 T03800165  RH  028%=      5-min Rain = 0
KAHS 182333Z 19012KT 38/17 A2982 RMK A01 T03800166  RH  028%=      5-min Rain = 0
KAHS 182334Z 19012KT 38/16 A2982 RMK A01 T03790164  RH  028%=      5-min Rain = 0
KAHS 182335Z 19013KT 38/17 A2982 RMK A01 T03790165  RH  028%=      5-min Rain = 0
KAHS 182336Z 19013KT 38/17 A2982 RMK A01 T03790165  RH  029%=      5-min Rain = 0
KAHS 182337Z 17016KT 38/17 A2982 RMK A01 T03780165  RH  029%=      5-min Rain = 0
KAHS 182338Z 17015KT 38/17 A2982 RMK A01 T03770165  RH  029%=      5-min Rain = 0
KAHS 182339Z 17016KT 38/17 A2982 RMK A01 T03760165  RH  029%=      5-min Rain = 0
KAHS 182340Z 17014G19KT 38/16 A2982 RMK A01 T03750164  RH  029%=      5-min Rain = 0
KAHS 182341Z 17011KT 38/17 A2982 RMK A01 T03750165  RH  029%=      5-min Rain = 0
KAHS 182342Z 16014G19KT 38/17 A2982 RMK A01 T03770166  RH  029%=      5-min Rain = 0
KAHS 182343Z 17013KT 38/17 A2982 RMK A01 T03770168  RH  029%=      5-min Rain = 0
KAHS 182344Z 16014KT 38/17 A2982 RMK A01 T03760167  RH  029%=      5-min Rain = 0
KAHS 182345Z 17015KT 38/17 A2982 RMK A01 T03760167  RH  029%=      5-min Rain = 0
KAHS 182346Z 18013KT 38/17 A2982 RMK A01 T03760168  RH  029%=      5-min Rain = 0
KAHS 182347Z 19011KT 38/17 A2982 RMK A01 T03760167  RH  029%=      5-min Rain = 0
KAHS 182348Z 19013KT 38/17 A2982 RMK A01 T03760166  RH  029%=      5-min Rain = 0
KAHS 182349Z 18013KT 38/17 A2982 RMK A01 T03750165  RH  029%=      5-min Rain = 0
KAHS 182350Z 19013KT 38/16 A2982 RMK A01 T03750164  RH  029%=      5-min Rain = 0
KAHS 182351Z 17012KT 38/17 A2982 RMK A01 T03750165  RH  029%=      5-min Rain = 0
KAHS 182352Z 17016KT 38/17 A2982 RMK A01 T03760167  RH  029%=      5-min Rain = 0
KAHS 182353Z 17015G20KT 38/17 A2982 RMK A01 T03760168  RH  029%=      5-min Rain = 0
KAHS 182354Z 17018G24KT 38/17 A2982 RMK A01 T03750168  RH  030%=      5-min Rain = 0
KAHS 182355Z 18018KT 37/17 A2982 RMK A01 T03730169  RH  030%=      5-min Rain = 0
KAHS 182356Z 17014G19KT 37/17 A2982 RMK A01 T03730170  RH  030%=      5-min Rain = 0
KAHS 182357Z 17014KT 37/17 A2982 RMK A01 T03720169  RH  030%=      5-min Rain = 0
KAHS 182358Z 16015KT 37/17 A2982 RMK A01 T03720169  RH  030%=      5-min Rain = 0
KAHS 182359Z 16015KT 37/17 A2982 RMK A01 T03720170  RH  031%=      5-min Rain = 0
KAHS 190000Z 15018KT 37/17 A2982 RMK A01 T03710169  RH  030%=      5-min Rain = 0
KAHS 190001Z 15014KT 37/17 A2982 RMK A01 T03710169  RH  031%=      5-min Rain = 0
KAHS 190002Z 15013G19KT 37/17 A2982 RMK A01 T03710171  RH  031%=      5-min Rain = 0
KAHS 190003Z 17015KT 37/17 A2982 RMK A01 T03720170  RH  031%=      5-min Rain = 0
KAHS 190004Z 17018KT 37/17 A2982 RMK A01 T03710171  RH  031%=      5-min Rain = 0
KAHS 190005Z 16016KT 37/17 A2982 RMK A01 T03700171  RH  031%=      5-min Rain = 0
KAHS 190006Z 17013KT 37/17 A2982 RMK A01 T03700171  RH  031%=      5-min Rain = 0
KAHS 190007Z 17013KT 37/17 A2982 RMK A01 T03690172  RH  031%=      5-min Rain = 0
KAHS 190008Z 17013G19KT 37/17 A2982 RMK A01 T03700173  RH  031%=      5-min Rain = 0
KAHS 190009Z 17014G19KT 37/17 A2982 RMK A01 T03710173  RH  031%=      5-min Rain = 0
KAHS 190010Z 16013G18KT 37/17 A2982 RMK A01 T03720174  RH  031%=      5-min Rain = 0
KAHS 190011Z 17015G22KT 37/17 A2982 RMK A01 T03720173  RH  031%=      5-min Rain = 0
KAHS 190012Z 17017G22KT 37/17 A2982 RMK A01 T03710171  RH  031%=      5-min Rain = 0
KAHS 190013Z 17017KT 37/17 A2982 RMK A01 T03700170  RH  031%=      5-min Rain = 0
KAHS 190014Z 17015G20KT 37/17 A2982 RMK A01 T03690169  RH  031%=      5-min Rain = 0
KAHS 190015Z 17016KT 37/17 A2982 RMK A01 T03690170  RH  031%=      5-min Rain = 0
KAHS 190016Z 17012KT 37/17 A2982 RMK A01 T03690171  RH  031%=      5-min Rain = 0
KAHS 190017Z 17012KT 37/17 A2982 RMK A01 T03690171  RH  031%=      5-min Rain = 0
KAHS 190018Z 17012KT 37/17 A2982 RMK A01 T03700172  RH  031%=      5-min Rain = 0
KAHS 190019Z 16013KT 37/17 A2982 RMK A01 T03700171  RH  031%=      5-min Rain = 0
KAHS 190020Z 15014KT 37/17 A2983 RMK A01 T03700173  RH  031%=      5-min Rain = 0
KAHS 190021Z 16015KT 37/17 A2983 RMK A01 T03700173  RH  031%=      5-min Rain = 0
KAHS 190022Z 16014G20KT 37/17 A2983 RMK A01 T03690173  RH  032%=      5-min Rain = 0
KAHS 190023Z 17015KT 37/17 A2983 RMK A01 T03680171  RH  031%=      5-min Rain = 0
KAHS 190024Z 16015KT 37/17 A2983 RMK A01 T03680171  RH  031%=      5-min Rain = 0
KAHS 190025Z 16016KT 37/17 A2983 RMK A01 T03670171  RH  032%=      5-min Rain = 0
KAHS 190026Z 15017KT 37/17 A2983 RMK A01 T03670171  RH  032%=      5-min Rain = 0
KAHS 190027Z 15014KT 37/17 A2983 RMK A01 T03660172  RH  032%=      5-min Rain = 0
KAHS 190028Z 15015KT 37/17 A2983 RMK A01 T03660173  RH  032%=      5-min Rain = 0
KAHS 190029Z 15015KT 37/17 A2983 RMK A01 T03650174  RH  032%=      5-min Rain = 0
KAHS 190030Z 15013G18KT 37/18 A2983 RMK A01 T03650176  RH  033%=      5-min Rain = 0
KAHS 190031Z 16017KT 37/18 A2983 RMK A01 T03650175  RH  033%=      5-min Rain = 0
KAHS 190032Z 16016KT 37/18 A2983 RMK A01 T03650175  RH  033%=      5-min Rain = 0
KAHS 190033Z 16014KT 36/18 A2983 RMK A01 T03640175  RH  033%=      5-min Rain = 0
KAHS 190034Z 17013KT 37/18 A2983 RMK A01 T03650175  RH  033%=      5-min Rain = 0
KAHS 190035Z 17012G18KT 37/17 A2983 RMK A01 T03660174  RH  032%=      5-min Rain = 0
KAHS 190036Z 17015KT 37/17 A2983 RMK A01 T03660174  RH  032%=      5-min Rain = 0
KAHS 190037Z 17015KT 36/17 A2983 RMK A01 T03640173  RH  032%=      5-min Rain = 0
KAHS 190038Z 16011KT 36/18 A2983 RMK A01 T03640175  RH  033%=      5-min Rain = 0
KAHS 190039Z 16013KT 36/18 A2983 RMK A01 T03640175  RH  033%=      5-min Rain = 0
KAHS 190040Z 16015KT 36/17 A2983 RMK A01 T03640174  RH  033%=      5-min Rain = 0
KAHS 190041Z 16015KT 36/18 A2983 RMK A01 T03630175  RH  033%=      5-min Rain = 0
KAHS 190042Z 16012KT 36/18 A2983 RMK A01 T03620176  RH  033%=      5-min Rain = 0
KAHS 190043Z 16010G16KT 36/18 A2983 RMK A01 T03620176  RH  034%=      5-min Rain = 0
KAHS 190044Z 16011G18KT 36/18 A2983 RMK A01 T03620179  RH  034%=      5-min Rain = 0
KAHS 190045Z 17013KT 36/18 A2983 RMK A01 T03620175  RH  033%=      5-min Rain = 0
KAHS 190046Z 17016KT 36/17 A2983 RMK A01 T03620173  RH  033%=      5-min Rain = 0
KAHS 190047Z 16015G21KT 36/17 A2983 RMK A01 T03620172  RH  033%=      5-min Rain = 0
KAHS 190048Z 16016KT 36/17 A2983 RMK A01 T03620172  RH  033%=      5-min Rain = 0
KAHS 190049Z 16015KT 36/17 A2983 RMK A01 T03610172  RH  033%=      5-min Rain = 0
KAHS 190050Z 16015KT 36/17 A2983 RMK A01 T03610172  RH  033%=      5-min Rain = 0
KAHS 190051Z 17013KT 36/17 A2983 RMK A01 T03600172  RH  033%=      5-min Rain = 0
KAHS 190052Z 17013G20KT 36/17 A2983 RMK A01 T03610173  RH  033%=      5-min Rain = 0
KAHS 190053Z 17015G21KT 36/17 A2983 RMK A01 T03600171  RH  033%=      5-min Rain = 0
KAHS 190054Z 18014KT 36/17 A2983 RMK A01 T03600171  RH  033%=      5-min Rain = 0
KAHS 190055Z 16014KT 36/17 A2983 RMK A01 T03590171  RH  033%=      5-min Rain = 0
KAHS 190056Z 17015KT 36/17 A2983 RMK A01 T03590171  RH  033%=      5-min Rain = 0
KAHS 190057Z 17013KT 36/17 A2983 RMK A01 T03590172  RH  033%=      5-min Rain = 0
KAHS 190058Z 16013KT 36/17 A2983 RMK A01 T03580172  RH  033%=      5-min Rain = 0
KAHS 190059Z 16013KT 36/17 A2984 RMK A01 T03580172  RH  033%=      5-min Rain = 0
KAHS 190100Z 16013KT 36/17 A2984 RMK A01 T03580171  RH  033%=      5-min Rain = 0
KAHS 190101Z 16014G21KT 36/17 A2984 RMK A01 T03570171  RH  033%=      5-min Rain = 0
KAHS 190102Z 16018KT 36/17 A2983 RMK A01 T03570170  RH  033%=      5-min Rain = 0
KAHS 190103Z 16012G17KT 36/17 A2984 RMK A01 T03570170  RH  033%=      5-min Rain = 0
KAHS 190104Z 16014KT 36/17 A2984 RMK A01 T03570170  RH  033%=      5-min Rain = 0
KAHS 190105Z 16015G23KT 36/17 A2984 RMK A01 T03570170  RH  033%=      5-min Rain = 0
KAHS 190106Z 17016KT 36/17 A2984 RMK A01 T03560169  RH  033%=      5-min Rain = 0
KAHS 190107Z 17015G21KT 36/17 A2984 RMK A01 T03560168  RH  033%=      5-min Rain = 0
KAHS 190108Z 17015KT 36/17 A2984 RMK A01 T03560168  RH  033%=      5-min Rain = 0
KAHS 190109Z 17014G23KT 36/17 A2984 RMK A01 T03550169  RH  033%=      5-min Rain = 0
KAHS 190110Z 17017G22KT 36/17 A2983 RMK A01 T03550168  RH  033%=      5-min Rain = 0
KAHS 190111Z 17014G19KT 36/17 A2984 RMK A01 T03550168  RH  033%=      5-min Rain = 0
KAHS 190112Z 17017KT 36/17 A2984 RMK A01 T03550168  RH  033%=      5-min Rain = 0
KAHS 190113Z 17016KT 36/17 A2984 RMK A01 T03550168  RH  033%=      5-min Rain = 0
KAHS 190114Z 16015G20KT 36/17 A2984 RMK A01 T03550169  RH  033%=      5-min Rain = 0
KAHS 190115Z 16012KT 35/17 A2984 RMK A01 T03540169  RH  033%=      5-min Rain = 0
KAHS 190116Z 17012G17KT 35/17 A2984 RMK A01 T03540169  RH  034%=      5-min Rain = 0
KAHS 190117Z 16013KT 35/17 A2984 RMK A01 T03530169  RH  033%=      5-min Rain = 0
KAHS 190118Z 16016KT 35/17 A2984 RMK A01 T03530168  RH  033%=      5-min Rain = 0
KAHS 190119Z 16016G22KT 35/17 A2984 RMK A01 T03530167  RH  033%=      5-min Rain = 0
KAHS 190120Z 17012KT 35/17 A2984 RMK A01 T03530168  RH  033%=      5-min Rain = 0
KAHS 190121Z 17011G16KT 35/17 A2984 RMK A01 T03530169  RH  033%=      5-min Rain = 0
KAHS 190122Z 16010KT 35/17 A2984 RMK A01 T03530169  RH  034%=      5-min Rain = 0
KAHS 190123Z 17011KT 35/17 A2984 RMK A01 T03520169  RH  034%=      5-min Rain = 0
KAHS 190124Z 16012KT 35/17 A2984 RMK A01 T03520170  RH  034%=      5-min Rain = 0
KAHS 190125Z 15009KT 35/17 A2984 RMK A01 T03520171  RH  034%=      5-min Rain = 0
KAHS 190126Z 16012KT 35/17 A2984 RMK A01 T03510172  RH  035%=      5-min Rain = 0
KAHS 190127Z 17013KT 35/17 A2984 RMK A01 T03500171  RH  035%=      5-min Rain = 0
KAHS 190128Z 17014KT 35/17 A2984 RMK A01 T03500170  RH  034%=      5-min Rain = 0
KAHS 190129Z 16013KT 35/17 A2984 RMK A01 T03490170  RH  034%=      5-min Rain = 0
KAHS 190130Z 17011KT 35/17 A2984 RMK A01 T03500170  RH  035%=      5-min Rain = 0
KAHS 190131Z 18011KT 35/17 A2984 RMK A01 T03490169  RH  034%=      5-min Rain = 0
KAHS 190132Z 17014G19KT 35/17 A2984 RMK A01 T03490167  RH  034%=      5-min Rain = 0
KAHS 190133Z 18016KT 35/17 A2984 RMK A01 T03490165  RH  034%=      5-min Rain = 0
KAHS 190134Z 17013G20KT 35/17 A2984 RMK A01 T03490165  RH  034%=      5-min Rain = 0
KAHS 190135Z 17015KT 35/17 A2984 RMK A01 T03490165  RH  034%=      5-min Rain = 0
KAHS 190136Z 17013KT 35/17 A2984 RMK A01 T03490166  RH  034%=      5-min Rain = 0
KAHS 190137Z 17011KT 35/17 A2984 RMK A01 T03480166  RH  034%=      5-min Rain = 0
KAHS 190138Z 17011KT 35/17 A2984 RMK A01 T03480167  RH  034%=      5-min Rain = 0
KAHS 190139Z 16010KT 35/17 A2984 RMK A01 T03470168  RH  034%=      5-min Rain = 0
KAHS 190140Z 16012G17KT 35/17 A2984 RMK A01 T03460169  RH  035%=      5-min Rain = 0
KAHS 190141Z 16012KT 35/17 A2984 RMK A01 T03460170  RH  035%=      5-min Rain = 0
KAHS 190142Z 16010KT 35/17 A2984 RMK A01 T03450171  RH  036%=      5-min Rain = 0
KAHS 190143Z 17013KT 34/17 A2984 RMK A01 T03440170  RH  036%=      5-min Rain = 0
KAHS 190144Z 17012KT 34/17 A2984 RMK A01 T03440170  RH  036%=      5-min Rain = 0
KAHS 190145Z 16009KT 34/17 A2984 RMK A01 T03430170  RH  036%=      5-min Rain = 0
KAHS 190146Z 17010KT 34/17 A2984 RMK A01 T03430171  RH  036%=      5-min Rain = 0
KAHS 190147Z 16011G17KT 34/17 A2984 RMK A01 T03420171  RH  036%=      5-min Rain = 0
KAHS 190148Z 17015KT 34/17 A2984 RMK A01 T03420170  RH  036%=      5-min Rain = 0
KAHS 190149Z 17014KT 34/17 A2984 RMK A01 T03430169  RH  036%=      5-min Rain = 0
KAHS 190150Z 16013G19KT 34/17 A2984 RMK A01 T03430169  RH  036%=      5-min Rain = 0
KAHS 190151Z 17013KT 34/17 A2984 RMK A01 T03430170  RH  036%=      5-min Rain = 0
KAHS 190152Z 17014KT 34/17 A2984 RMK A01 T03420170  RH  036%=      5-min Rain = 0
KAHS 190153Z 17012KT 34/17 A2984 RMK A01 T03420170  RH  036%=      5-min Rain = 0
KAHS 190154Z 16013KT 34/17 A2984 RMK A01 T03420170  RH  036%=      5-min Rain = 0
KAHS 190155Z 17009KT 34/17 A2984 RMK A01 T03410170  RH  036%=      5-min Rain = 0
KAHS 190156Z 17013KT 34/17 A2984 RMK A01 T03400170  RH  036%=      5-min Rain = 0
KAHS 190157Z 17011KT 34/17 A2984 RMK A01 T03400171  RH  037%=      5-min Rain = 0
KAHS 190158Z 16012KT 34/17 A2984 RMK A01 T03400172  RH  037%=      5-min Rain = 0
KAHS 190159Z 17013KT 34/17 A2984 RMK A01 T03390171  RH  037%=      5-min Rain = 0
KAHS 190200Z 15009KT 34/17 A2984 RMK A01 T03390172  RH  037%=      5-min Rain = 0
KAHS 190201Z 16010KT 34/17 A2984 RMK A01 T03380172  RH  037%=      5-min Rain = 0
KAHS 190202Z 16012KT 34/17 A2984 RMK A01 T03370172  RH  037%=      5-min Rain = 0
KAHS 190203Z 16011KT 34/17 A2984 RMK A01 T03370172  RH  038%=      5-min Rain = 0
KAHS 190204Z 17010KT 34/17 A2984 RMK A01 T03370173  RH  038%=      5-min Rain = 0
KAHS 190205Z 17009KT 34/17 A2984 RMK A01 T03360173  RH  038%=      5-min Rain = 0
KAHS 190206Z 16009KT 34/17 A2984 RMK A01 T03360173  RH  038%=      5-min Rain = 0
KAHS 190207Z 16009KT 34/17 A2984 RMK A01 T03350174  RH  038%=      5-min Rain = 0
KAHS 190208Z 16010KT 34/17 A2984 RMK A01 T03350174  RH  038%=      5-min Rain = 0
KAHS 190209Z 17010KT 34/17 A2984 RMK A01 T03350174  RH  038%=      5-min Rain = 0
KAHS 190210Z 17011KT 34/17 A2984 RMK A01 T03350174  RH  038%=      5-min Rain = 0
KAHS 190211Z 17012KT 34/17 A2984 RMK A01 T03350174  RH  038%=      5-min Rain = 0
KAHS 190212Z 17013KT 34/17 A2984 RMK A01 T03350173  RH  038%=      5-min Rain = 0
KAHS 190213Z 16011KT 34/17 A2984 RMK A01 T03350174  RH  038%=      5-min Rain = 0
KAHS 190214Z 16013KT 34/17 A2985 RMK A01 T03350174  RH  038%=      5-min Rain = 0
KAHS 190215Z 16011KT 34/17 A2985 RMK A01 T03350174  RH  038%=      5-min Rain = 0
KAHS 190216Z 16010KT 33/18 A2985 RMK A01 T03340175  RH  039%=      5-min Rain = 0
KAHS 190217Z 17012KT 33/18 A2985 RMK A01 T03340175  RH  039%=      5-min Rain = 0
KAHS 190218Z 17011KT 33/18 A2985 RMK A01 T03340175  RH  039%=      5-min Rain = 0
KAHS 190219Z 16011KT 33/18 A2985 RMK A01 T03330175  RH  039%=      5-min Rain = 0
KAHS 190220Z 16011KT 33/18 A2985 RMK A01 T03330176  RH  039%=      5-min Rain = 0
KAHS 190221Z 17011KT 33/18 A2985 RMK A01 T03320175  RH  039%=      5-min Rain = 0
KAHS 190222Z 16008KT 33/18 A2985 RMK A01 T03320176  RH  039%=      5-min Rain = 0
KAHS 190223Z 16012KT 33/18 A2985 RMK A01 T03320176  RH  039%=      5-min Rain = 0
KAHS 190224Z 16012KT 33/18 A2985 RMK A01 T03320176  RH  039%=      5-min Rain = 0
KAHS 190225Z 16013KT 33/18 A2985 RMK A01 T03320176  RH  039%=      5-min Rain = 0
KAHS 190226Z 16008KT 33/18 A2985 RMK A01 T03320177  RH  040%=      5-min Rain = 0
KAHS 190227Z 16010KT 33/18 A2985 RMK A01 T03310177  RH  040%=      5-min Rain = 0
KAHS 190228Z 16013KT 33/18 A2985 RMK A01 T03310177  RH  040%=      5-min Rain = 0
KAHS 190229Z 16011G16KT 33/18 A2985 RMK A01 T03310177  RH  040%=      5-min Rain = 0
KAHS 190230Z 16010KT 33/18 A2985 RMK A01 T03310177  RH  040%=      5-min Rain = 0
KAHS 190231Z 16010KT 33/18 A2985 RMK A01 T03310177  RH  040%=      5-min Rain = 0
KAHS 190232Z 16009KT 33/18 A2985 RMK A01 T03300177  RH  040%=      5-min Rain = 0
KAHS 190233Z 16009KT 33/18 A2985 RMK A01 T03290177  RH  040%=      5-min Rain = 0
KAHS 190234Z 17010KT 33/18 A2985 RMK A01 T03290177  RH  040%=      5-min Rain = 0
KAHS 190235Z 16009KT 33/18 A2985 RMK A01 T03290177  RH  041%=      5-min Rain = 0
KAHS 190236Z 16013KT 33/18 A2985 RMK A01 T03280177  RH  041%=      5-min Rain = 0
KAHS 190237Z 17012KT 33/18 A2985 RMK A01 T03290177  RH  040%=      5-min Rain = 0
KAHS 190238Z 16011KT 33/18 A2985 RMK A01 T03290177  RH  040%=      5-min Rain = 0
KAHS 190239Z 16010KT 33/18 A2985 RMK A01 T03290177  RH  040%=      5-min Rain = 0
KAHS 190240Z 16011KT 33/18 A2985 RMK A01 T03290177  RH  040%=      5-min Rain = 0
KAHS 190241Z 16010KT 33/18 A2985 RMK A01 T03280176  RH  040%=      5-min Rain = 0
KAHS 190242Z 16011KT 33/18 A2985 RMK A01 T03280177  RH  041%=      5-min Rain = 0
KAHS 190243Z 16010KT 33/18 A2985 RMK A01 T03280177  RH  041%=      5-min Rain = 0
KAHS 190244Z 16010KT 33/18 A2985 RMK A01 T03280177  RH  041%=      5-min Rain = 0
KAHS 190245Z 16011KT 33/18 A2985 RMK A01 T03270176  RH  041%=      5-min Rain = 0
KAHS 190246Z 16010KT 33/18 A2985 RMK A01 T03270177  RH  041%=      5-min Rain = 0
KAHS 190247Z 16009KT 33/18 A2985 RMK A01 T03270177  RH  041%=      5-min Rain = 0
KAHS 190248Z 16009KT 33/18 A2985 RMK A01 T03270177  RH  041%=      5-min Rain = 0
KAHS 190249Z 16011KT 33/18 A2985 RMK A01 T03270178  RH  041%=      5-min Rain = 0
KAHS 190250Z 16011KT 33/18 A2985 RMK A01 T03270178  RH  041%=      5-min Rain = 0
KAHS 190251Z 16008KT 33/18 A2985 RMK A01 T03260178  RH  041%=      5-min Rain = 0
KAHS 190252Z 16008KT 33/18 A2985 RMK A01 T03250178  RH  041%=      5-min Rain = 0
KAHS 190253Z 17009KT 33/18 A2985 RMK A01 T03250178  RH  042%=      5-min Rain = 0
KAHS 190254Z 17009KT 33/18 A2985 RMK A01 T03250178  RH  042%=      5-min Rain = 0
KAHS 190255Z 16011KT 33/18 A2985 RMK A01 T03250178  RH  042%=      5-min Rain = 0
KAHS 190256Z 17010KT 32/18 A2985 RMK A01 T03240178  RH  042%=      5-min Rain = 0
KAHS 190257Z 17011KT 32/18 A2985 RMK A01 T03240178  RH  042%=      5-min Rain = 0
KAHS 190258Z 16009KT 33/18 A2985 RMK A01 T03250178  RH  042%=      5-min Rain = 0
KAHS 190259Z 17012KT 32/18 A2985 RMK A01 T03240177  RH  042%=      5-min Rain = 0
KAHS 190300Z 16010KT 33/18 A2985 RMK A01 T03250178  RH  042%=      5-min Rain = 0
KAHS 190301Z 16009KT 33/18 A2986 RMK A01 T03250178  RH  042%=      5-min Rain = 0
KAHS 190302Z 17010KT 32/18 A2986 RMK A01 T03240178  RH  042%=      5-min Rain = 0
KAHS 190303Z 15011KT 32/18 A2986 RMK A01 T03240178  RH  042%=      5-min Rain = 0
KAHS 190304Z 16009KT 32/18 A2986 RMK A01 T03240178  RH  042%=      5-min Rain = 0
KAHS 190305Z 16011G16KT 32/18 A2986 RMK A01 T03240179  RH  042%=      5-min Rain = 0
KAHS 190306Z 16011KT 32/18 A2986 RMK A01 T03230178  RH  042%=      5-min Rain = 0
KAHS 190307Z 17007KT 32/18 A2986 RMK A01 T03240179  RH  042%=      5-min Rain = 0
KAHS 190308Z 17013KT 32/18 A2986 RMK A01 T03230178  RH  042%=      5-min Rain = 0
KAHS 190309Z 17009KT 32/18 A2986 RMK A01 T03230179  RH  042%=      5-min Rain = 0
KAHS 190310Z 17009KT 32/18 A2986 RMK A01 T03230179  RH  042%=      5-min Rain = 0
KAHS 190311Z 17011KT 32/18 A2986 RMK A01 T03230179  RH  042%=      5-min Rain = 0
KAHS 190312Z 16011KT 32/18 A2986 RMK A01 T03230179  RH  042%=      5-min Rain = 0
KAHS 190313Z 17010KT 32/18 A2986 RMK A01 T03230179  RH  042%=      5-min Rain = 0
KAHS 190314Z 17013KT 32/18 A2986 RMK A01 T03230179  RH  042%=      5-min Rain = 0
KAHS 190315Z 17014KT 32/18 A2986 RMK A01 T03230178  RH  042%=      5-min Rain = 0
KAHS 190316Z 17011G17KT 32/18 A2986 RMK A01 T03230178  RH  042%=      5-min Rain = 0
KAHS 190317Z 17014KT 32/18 A2986 RMK A01 T03230178  RH  042%=      5-min Rain = 0
KAHS 190318Z 17013KT 32/18 A2986 RMK A01 T03230178  RH  042%=      5-min Rain = 0
KAHS 190319Z 17013KT 32/18 A2986 RMK A01 T03230179  RH  042%=      5-min Rain = 0
KAHS 190320Z 17013KT 32/18 A2986 RMK A01 T03230179  RH  042%=      5-min Rain = 0
KAHS 190321Z 17011KT 32/18 A2986 RMK A01 T03230179  RH  042%=      5-min Rain = 0
KAHS 190322Z 17011KT 32/18 A2986 RMK A01 T03230179  RH  042%=      5-min Rain = 0
KAHS 190323Z 17010KT 32/18 A2986 RMK A01 T03230179  RH  042%=      5-min Rain = 0
KAHS 190324Z 17011KT 32/18 A2986 RMK A01 T03220179  RH  043%=      5-min Rain = 0
KAHS 190325Z 17010KT 32/18 A2986 RMK A01 T03220179  RH  043%=      5-min Rain = 0
KAHS 190326Z 17012KT 32/18 A2987 RMK A01 T03210179  RH  043%=      5-min Rain = 0
KAHS 190327Z 18011KT 32/18 A2987 RMK A01 T03210178  RH  043%=      5-min Rain = 0
KAHS 190328Z 18012KT 32/18 A2987 RMK A01 T03210178  RH  043%=      5-min Rain = 0
KAHS 190329Z 17012G17KT 32/18 A2987 RMK A01 T03220179  RH  043%=      5-min Rain = 0
KAHS 190330Z 17010KT 32/18 A2987 RMK A01 T03220179  RH  043%=      5-min Rain = 0
KAHS 190331Z 17013KT 32/18 A2987 RMK A01 T03210179  RH  043%=      5-min Rain = 0
KAHS 190332Z 17013KT 32/18 A2987 RMK A01 T03220179  RH  043%=      5-min Rain = 0
KAHS 190333Z 17012KT 32/18 A2987 RMK A01 T03210178  RH  043%=      5-min Rain = 0
KAHS 190334Z 17012KT 32/18 A2987 RMK A01 T03210178  RH  042%=      5-min Rain = 0
KAHS 190335Z 17013G18KT 32/18 A2987 RMK A01 T03220178  RH  042%=      5-min Rain = 0
KAHS 190336Z 18015G20KT 32/18 A2987 RMK A01 T03210178  RH  042%=      5-min Rain = 0
KAHS 190337Z 18013KT 32/18 A2987 RMK A01 T03220178  RH  042%=      5-min Rain = 0
KAHS 190338Z 18013KT 32/18 A2987 RMK A01 T03210178  RH  042%=      5-min Rain = 0
KAHS 190339Z 17014KT 32/18 A2987 RMK A01 T03210178  RH  042%=      5-min Rain = 0
KAHS 190340Z 17013KT 32/18 A2987 RMK A01 T03210178  RH  043%=      5-min Rain = 0
KAHS 190341Z 17014KT 32/18 A2987 RMK A01 T03210178  RH  043%=      5-min Rain = 0
KAHS 190342Z 17013KT 32/18 A2987 RMK A01 T03210178  RH  043%=      5-min Rain = 0
KAHS 190343Z 17011KT 32/18 A2987 RMK A01 T03210178  RH  043%=      5-min Rain = 0
KAHS 190344Z 17010KT 32/18 A2987 RMK A01 T03200178  RH  043%=      5-min Rain = 0
KAHS 190345Z 17012KT 32/18 A2987 RMK A01 T03200178  RH  043%=      5-min Rain = 0
KAHS 190346Z 17013KT 32/18 A2987 RMK A01 T03190178  RH  043%=      5-min Rain = 0
KAHS 190347Z 17012KT 32/18 A2987 RMK A01 T03190178  RH  043%=      5-min Rain = 0
KAHS 190348Z 18011KT 32/18 A2987 RMK A01 T03190178  RH  043%=      5-min Rain = 0
KAHS 190349Z 17010KT 32/18 A2987 RMK A01 T03190178  RH  043%=      5-min Rain = 0
KAHS 190350Z 18012KT 32/18 A2987 RMK A01 T03190178  RH  043%=      5-min Rain = 0
KAHS 190351Z 17013KT 32/18 A2987 RMK A01 T03190177  RH  043%=      5-min Rain = 0
KAHS 190352Z 17014G19KT 32/18 A2988 RMK A01 T03190177  RH  043%=      5-min Rain = 0
KAHS 190353Z 17014KT 32/18 A2988 RMK A01 T03190177  RH  043%=      5-min Rain = 0
KAHS 190354Z 18013KT 32/18 A2988 RMK A01 T03190177  RH  043%=      5-min Rain = 0
KAHS 190355Z 17012KT 32/18 A2988 RMK A01 T03190177  RH  043%=      5-min Rain = 0
KAHS 190356Z 17012KT 32/18 A2988 RMK A01 T03190177  RH  043%=      5-min Rain = 0
KAHS 190357Z 17012KT 32/18 A2988 RMK A01 T03180177  RH  043%=      5-min Rain = 0
KAHS 190358Z 17014KT 32/18 A2988 RMK A01 T03180177  RH  043%=      5-min Rain = 0
KAHS 190359Z 18014KT 32/18 A2988 RMK A01 T03190177  RH  043%=      5-min Rain = 0
KAHS 190400Z 17013KT 32/18 A2988 RMK A01 T03190177  RH  043%=      5-min Rain = 0
KAHS 190401Z 17013KT 32/18 A2988 RMK A01 T03180177  RH  043%=      5-min Rain = 0
KAHS 190402Z 17012KT 32/18 A2988 RMK A01 T03180177  RH  043%=      5-min Rain = 0
KAHS 190403Z 17015KT 32/18 A2988 RMK A01 T03180176  RH  043%=      5-min Rain = 0
KAHS 190404Z 17015KT 32/18 A2988 RMK A01 T03180176  RH  043%=      5-min Rain = 0
KAHS 190405Z 18014G19KT 32/18 A2988 RMK A01 T03180176  RH  043%=      5-min Rain = 0
KAHS 190406Z 17015KT 32/18 A2988 RMK A01 T03180176  RH  043%=      5-min Rain = 0
KAHS 190407Z 17015KT 32/18 A2988 RMK A01 T03180176  RH  043%=      5-min Rain = 0
KAHS 190408Z 17015KT 32/18 A2988 RMK A01 T03170176  RH  043%=      5-min Rain = 0
KAHS 190409Z 17012G17KT 32/18 A2988 RMK A01 T03170177  RH  043%=      5-min Rain = 0
KAHS 190410Z 17013G18KT 32/18 A2988 RMK A01 T03170176  RH  043%=      5-min Rain = 0
KAHS 190411Z 18014KT 32/18 A2988 RMK A01 T03170176  RH  043%=      5-min Rain = 0
KAHS 190412Z 17014KT 32/18 A2988 RMK A01 T03170176  RH  043%=      5-min Rain = 0
KAHS 190413Z 18012KT 32/18 A2988 RMK A01 T03160176  RH  043%=      5-min Rain = 0
KAHS 190414Z 17015KT 32/18 A2988 RMK A01 T03160176  RH  043%=      5-min Rain = 0
KAHS 190415Z 17014G20KT 32/18 A2988 RMK A01 T03160176  RH  043%=      5-min Rain = 0
KAHS 190416Z 17013KT 32/18 A2988 RMK A01 T03160176  RH  043%=      5-min Rain = 0
KAHS 190417Z 17013KT 32/18 A2988 RMK A01 T03160176  RH  043%=      5-min Rain = 0
KAHS 190418Z 17012KT 32/18 A2988 RMK A01 T03160176  RH  043%=      5-min Rain = 0
KAHS 190419Z 17013KT 32/18 A2988 RMK A01 T03150176  RH  043%=      5-min Rain = 0
KAHS 190420Z 17014KT 32/18 A2988 RMK A01 T03150176  RH  043%=      5-min Rain = 0
KAHS 190421Z 17015KT 32/18 A2988 RMK A01 T03150176  RH  043%=      5-min Rain = 0
KAHS 190422Z 17015KT 32/18 A2988 RMK A01 T03160175  RH  043%=      5-min Rain = 0
KAHS 190423Z 17010KT 32/18 A2988 RMK A01 T03150175  RH  043%=      5-min Rain = 0
KAHS 190424Z 17012KT 32/18 A2988 RMK A01 T03150175  RH  043%=      5-min Rain = 0
KAHS 190425Z 18011KT 31/18 A2988 RMK A01 T03140175  RH  043%=      5-min Rain = 0
KAHS 190426Z 18011G19KT 31/18 A2988 RMK A01 T03140175  RH  044%=      5-min Rain = 0
KAHS 190427Z 17015G21KT 31/18 A2988 RMK A01 T03140175  RH  043%=      5-min Rain = 0
KAHS 190428Z 18014KT 32/18 A2988 RMK A01 T03150175  RH  043%=      5-min Rain = 0
KAHS 190429Z 18012KT 31/18 A2988 RMK A01 T03140175  RH  043%=      5-min Rain = 0
KAHS 190430Z 17015G21KT 31/18 A2988 RMK A01 T03140175  RH  043%=      5-min Rain = 0
KAHS 190431Z 18016KT 31/17 A2988 RMK A01 T03140174  RH  043%=      5-min Rain = 0
KAHS 190432Z 17013KT 32/17 A2989 RMK A01 T03150174  RH  043%=      5-min Rain = 0
KAHS 190433Z 17014G19KT 31/17 A2989 RMK A01 T03140174  RH  043%=      5-min Rain = 0
KAHS 190434Z 17012KT 31/17 A2989 RMK A01 T03140174  RH  043%=      5-min Rain = 0
KAHS 190435Z 18012G19KT 31/17 A2989 RMK A01 T03140174  RH  043%=      5-min Rain = 0
KAHS 190436Z 17014KT 31/17 A2989 RMK A01 T03130174  RH  043%=      5-min Rain = 0
KAHS 190437Z 18015KT 31/17 A2989 RMK A01 T03130174  RH  043%=      5-min Rain = 0
KAHS 190438Z 17012KT 31/17 A2989 RMK A01 T03130174  RH  043%=      5-min Rain = 0
KAHS 190439Z 18011KT 31/17 A2989 RMK A01 T03130174  RH  043%=      5-min Rain = 0
KAHS 190440Z 18013KT 31/17 A2989 RMK A01 T03120174  RH  044%=      5-min Rain = 0
KAHS 190441Z 18014KT 31/17 A2989 RMK A01 T03120174  RH  044%=      5-min Rain = 0
KAHS 190442Z 18013KT 31/17 A2989 RMK A01 T03120173  RH  043%=      5-min Rain = 0
KAHS 190443Z 18012KT 31/17 A2989 RMK A01 T03120174  RH  043%=      5-min Rain = 0
KAHS 190444Z 18011KT 31/17 A2989 RMK A01 T03120174  RH  044%=      5-min Rain = 0
KAHS 190445Z 18012G17KT 31/17 A2989 RMK A01 T03110173  RH  044%=      5-min Rain = 0
KAHS 190446Z 18009KT 31/17 A2989 RMK A01 T03110173  RH  044%=      5-min Rain = 0
KAHS 190447Z 18009KT 31/17 A2989 RMK A01 T03100174  RH  044%=      5-min Rain = 0
KAHS 190448Z 18007KT 31/17 A2989 RMK A01 T03100174  RH  044%=      5-min Rain = 0
KAHS 190449Z 18011KT 31/17 A2989 RMK A01 T03090173  RH  044%=      5-min Rain = 0
KAHS 190450Z 18012KT 31/17 A2989 RMK A01 T03090172  RH  044%=      5-min Rain = 0
KAHS 190451Z 18009KT 31/17 A2989 RMK A01 T03090172  RH  044%=      5-min Rain = 0
KAHS 190452Z 18010KT 31/17 A2989 RMK A01 T03090173  RH  044%=      5-min Rain = 0
KAHS 190453Z 19013KT 31/17 A2989 RMK A01 T03090172  RH  044%=      5-min Rain = 0
KAHS 190454Z 18013KT 31/17 A2989 RMK A01 T03090172  RH  044%=      5-min Rain = 0
KAHS 190455Z 18013G18KT 31/17 A2989 RMK A01 T03090172  RH  044%=      5-min Rain = 0
KAHS 190456Z 18012KT 31/17 A2989 RMK A01 T03090171  RH  044%=      5-min Rain = 0
KAHS 190457Z 18010KT 31/17 A2989 RMK A01 T03090172  RH  044%=      5-min Rain = 0
KAHS 190458Z 18010KT 31/17 A2989 RMK A01 T03090172  RH  044%=      5-min Rain = 0
KAHS 190459Z 18010KT 31/17 A2989 RMK A01 T03090172  RH  044%=      5-min Rain = 0

Page generated in 0.1384 seconds.